<?xml version="1.0" encoding="UTF-8" standalone="no" ?>
<gpx xmlns="http://www.topografix.com/GPX/1/1" xmlns:xsi="http://www.w3.org/2001/XMLSchema-instance" xsi:schemaLocation="http://www.topografix.com/GPX/1/1 http://www.topografix.com/GPX/1/1/gpx.xsd" version="1.1" creator="VisuGPX - https://www.visugpx.com">
  <metadata>
    <name>18/18 Queyrieres  / Le Puy en Velay </name>
    <desc><![CDATA[File with points/tracks from Locus Map Classic/3.60.2]]></desc>
  </metadata>
  <trk>
    <name><![CDATA[Queyrieres  / Le Puy en Velay ]]></name>
    <extensions>
      <line xmlns="http://www.topografix.com/GPX/gpx_style/0/2">
        <color>0000FF</color>
        <opacity>0.59</opacity>
        <width>4.0</width>
      </line>
    </extensions>
    <trkseg>
      <trkpt lat="45.07295" lon="4.0979">
        <ele>1153.47</ele>
        <time>2022-05-09T06:35:32.000Z</time>
      </trkpt>
      <trkpt lat="45.07274" lon="4.09805">
        <ele>1153.48</ele>
        <time>2022-05-09T06:36:46.950Z</time>
      </trkpt>
      <trkpt lat="45.07285" lon="4.09833">
        <ele>1152.2</ele>
        <time>2022-05-09T06:37:13.009Z</time>
      </trkpt>
      <trkpt lat="45.07303" lon="4.09855">
        <ele>1153.55</ele>
        <time>2022-05-09T06:37:32.134Z</time>
      </trkpt>
      <trkpt lat="45.07321" lon="4.09875">
        <ele>1152.08</ele>
        <time>2022-05-09T06:37:51.047Z</time>
      </trkpt>
      <trkpt lat="45.07339" lon="4.09896">
        <ele>1153.19</ele>
        <time>2022-05-09T06:38:09.134Z</time>
      </trkpt>
      <trkpt lat="45.07353" lon="4.09921">
        <ele>1153.75</ele>
        <time>2022-05-09T06:38:28.134Z</time>
      </trkpt>
      <trkpt lat="45.07354" lon="4.09953">
        <ele>1151.78</ele>
        <time>2022-05-09T06:38:48.334Z</time>
      </trkpt>
      <trkpt lat="45.07342" lon="4.09981">
        <ele>1154.11</ele>
        <time>2022-05-09T06:39:30.311Z</time>
      </trkpt>
      <trkpt lat="45.07328" lon="4.10009">
        <ele>1152.22</ele>
        <time>2022-05-09T06:39:47.000Z</time>
      </trkpt>
      <trkpt lat="45.07313" lon="4.10033">
        <ele>1152.08</ele>
        <time>2022-05-09T06:40:05.947Z</time>
      </trkpt>
      <trkpt lat="45.07296" lon="4.10057">
        <ele>1145.34</ele>
        <time>2022-05-09T06:40:24.995Z</time>
      </trkpt>
      <trkpt lat="45.07283" lon="4.10083">
        <ele>1147.98</ele>
        <time>2022-05-09T06:40:42.833Z</time>
      </trkpt>
      <trkpt lat="45.07266" lon="4.10106">
        <ele>1148.17</ele>
        <time>2022-05-09T06:41:01.228Z</time>
      </trkpt>
      <trkpt lat="45.07244" lon="4.10117">
        <ele>1145.91</ele>
        <time>2022-05-09T06:41:18.334Z</time>
      </trkpt>
      <trkpt lat="45.07221" lon="4.10119">
        <ele>1152.18</ele>
        <time>2022-05-09T06:41:37.754Z</time>
      </trkpt>
      <trkpt lat="45.07197" lon="4.10122">
        <ele>1152.18</ele>
        <time>2022-05-09T06:41:56.000Z</time>
      </trkpt>
      <trkpt lat="45.07173" lon="4.10126">
        <ele>1139.4</ele>
        <time>2022-05-09T06:42:16.055Z</time>
      </trkpt>
      <trkpt lat="45.0715" lon="4.10134">
        <ele>1139.39</ele>
        <time>2022-05-09T06:42:34.189Z</time>
      </trkpt>
      <trkpt lat="45.07131" lon="4.10154">
        <ele>1152.78</ele>
        <time>2022-05-09T06:42:52.333Z</time>
      </trkpt>
      <trkpt lat="45.07115" lon="4.10178">
        <ele>1152.78</ele>
        <time>2022-05-09T06:43:08.990Z</time>
      </trkpt>
      <trkpt lat="45.07099" lon="4.102">
        <ele>1152.78</ele>
        <time>2022-05-09T06:43:27.068Z</time>
      </trkpt>
      <trkpt lat="45.0708" lon="4.10219">
        <ele>1152.78</ele>
        <time>2022-05-09T06:43:44.032Z</time>
      </trkpt>
      <trkpt lat="45.07057" lon="4.10219">
        <ele>1152.78</ele>
        <time>2022-05-09T06:44:03.746Z</time>
      </trkpt>
      <trkpt lat="45.07035" lon="4.10211">
        <ele>1132.58</ele>
        <time>2022-05-09T06:44:22.675Z</time>
      </trkpt>
      <trkpt lat="45.07013" lon="4.10203">
        <ele>1133.78</ele>
        <time>2022-05-09T06:44:42.971Z</time>
      </trkpt>
      <trkpt lat="45.0699" lon="4.10194">
        <ele>1139.31</ele>
        <time>2022-05-09T06:45:00.031Z</time>
      </trkpt>
      <trkpt lat="45.06967" lon="4.10185">
        <ele>1139.61</ele>
        <time>2022-05-09T06:46:12.971Z</time>
      </trkpt>
      <trkpt lat="45.06945" lon="4.10173">
        <ele>1138.1</ele>
        <time>2022-05-09T06:46:30.847Z</time>
      </trkpt>
      <trkpt lat="45.06922" lon="4.10166">
        <ele>1140.83</ele>
        <time>2022-05-09T06:46:49.251Z</time>
      </trkpt>
      <trkpt lat="45.06899" lon="4.10163">
        <ele>1139.17</ele>
        <time>2022-05-09T06:47:07.194Z</time>
      </trkpt>
      <trkpt lat="45.06876" lon="4.10162">
        <ele>1139.93</ele>
        <time>2022-05-09T06:47:25.629Z</time>
      </trkpt>
      <trkpt lat="45.06853" lon="4.10165">
        <ele>1139.15</ele>
        <time>2022-05-09T06:47:44.928Z</time>
      </trkpt>
      <trkpt lat="45.0683" lon="4.10171">
        <ele>1137.31</ele>
        <time>2022-05-09T06:48:04.188Z</time>
      </trkpt>
      <trkpt lat="45.06808" lon="4.1018">
        <ele>1137.67</ele>
        <time>2022-05-09T06:48:21.671Z</time>
      </trkpt>
      <trkpt lat="45.06786" lon="4.1019">
        <ele>1136.69</ele>
        <time>2022-05-09T06:48:39.355Z</time>
      </trkpt>
      <trkpt lat="45.06763" lon="4.10198">
        <ele>1136.38</ele>
        <time>2022-05-09T06:48:56.761Z</time>
      </trkpt>
      <trkpt lat="45.06739" lon="4.10204">
        <ele>1134.87</ele>
        <time>2022-05-09T06:49:15.106Z</time>
      </trkpt>
      <trkpt lat="45.06716" lon="4.10201">
        <ele>1134.08</ele>
        <time>2022-05-09T06:49:33.694Z</time>
      </trkpt>
      <trkpt lat="45.06694" lon="4.10199">
        <ele>1135.96</ele>
        <time>2022-05-09T06:49:52.751Z</time>
      </trkpt>
      <trkpt lat="45.06671" lon="4.10202">
        <ele>1135.47</ele>
        <time>2022-05-09T06:50:09.994Z</time>
      </trkpt>
      <trkpt lat="45.06653" lon="4.10221">
        <ele>1132.68</ele>
        <time>2022-05-09T06:50:28.053Z</time>
      </trkpt>
      <trkpt lat="45.06635" lon="4.1024">
        <ele>1128.56</ele>
        <time>2022-05-09T06:50:47.794Z</time>
      </trkpt>
      <trkpt lat="45.06612" lon="4.10245">
        <ele>1124.23</ele>
        <time>2022-05-09T06:51:08.128Z</time>
      </trkpt>
      <trkpt lat="45.0659" lon="4.10256">
        <ele>1122.7</ele>
        <time>2022-05-09T06:51:28.013Z</time>
      </trkpt>
      <trkpt lat="45.06568" lon="4.10264">
        <ele>1120.41</ele>
        <time>2022-05-09T06:51:48.214Z</time>
      </trkpt>
      <trkpt lat="45.06546" lon="4.10272">
        <ele>1117.12</ele>
        <time>2022-05-09T06:52:07.493Z</time>
      </trkpt>
      <trkpt lat="45.06523" lon="4.10279">
        <ele>1113.33</ele>
        <time>2022-05-09T06:52:27.933Z</time>
      </trkpt>
      <trkpt lat="45.06503" lon="4.10295">
        <ele>1111.02</ele>
        <time>2022-05-09T06:52:49.067Z</time>
      </trkpt>
      <trkpt lat="45.06484" lon="4.10315">
        <ele>1110.51</ele>
        <time>2022-05-09T06:53:10.911Z</time>
      </trkpt>
      <trkpt lat="45.06473" lon="4.10343">
        <ele>1103.39</ele>
        <time>2022-05-09T06:54:06.809Z</time>
      </trkpt>
      <trkpt lat="45.06459" lon="4.10368">
        <ele>1100.6</ele>
        <time>2022-05-09T06:54:27.761Z</time>
      </trkpt>
      <trkpt lat="45.06455" lon="4.10399">
        <ele>1100.04</ele>
        <time>2022-05-09T06:54:49.852Z</time>
      </trkpt>
      <trkpt lat="45.06433" lon="4.10392">
        <ele>1098.38</ele>
        <time>2022-05-09T06:55:12.052Z</time>
      </trkpt>
      <trkpt lat="45.06411" lon="4.10381">
        <ele>1103.88</ele>
        <time>2022-05-09T06:55:39.168Z</time>
      </trkpt>
      <trkpt lat="45.06389" lon="4.10377">
        <ele>1118.51</ele>
        <time>2022-05-09T06:56:11.590Z</time>
      </trkpt>
      <trkpt lat="45.06403" lon="4.10402">
        <ele>1098.22</ele>
        <time>2022-05-09T06:56:40.015Z</time>
      </trkpt>
      <trkpt lat="45.06422" lon="4.10423">
        <ele>1081.2</ele>
        <time>2022-05-09T06:57:08.927Z</time>
      </trkpt>
      <trkpt lat="45.06442" lon="4.10438">
        <ele>1074.3</ele>
        <time>2022-05-09T06:57:32.107Z</time>
      </trkpt>
      <trkpt lat="45.06462" lon="4.10456">
        <ele>1073.07</ele>
        <time>2022-05-09T06:57:52.010Z</time>
      </trkpt>
      <trkpt lat="45.0646" lon="4.10487">
        <ele>1073.86</ele>
        <time>2022-05-09T06:58:12.875Z</time>
      </trkpt>
      <trkpt lat="45.06442" lon="4.10509">
        <ele>1071.09</ele>
        <time>2022-05-09T06:58:34.315Z</time>
      </trkpt>
      <trkpt lat="45.06426" lon="4.10531">
        <ele>1066.32</ele>
        <time>2022-05-09T06:58:53.912Z</time>
      </trkpt>
      <trkpt lat="45.06411" lon="4.10555">
        <ele>1066.16</ele>
        <time>2022-05-09T06:59:13.875Z</time>
      </trkpt>
      <trkpt lat="45.06394" lon="4.10577">
        <ele>1062.02</ele>
        <time>2022-05-09T06:59:32.874Z</time>
      </trkpt>
      <trkpt lat="45.06376" lon="4.10597">
        <ele>1062.06</ele>
        <time>2022-05-09T06:59:51.788Z</time>
      </trkpt>
      <trkpt lat="45.06356" lon="4.10616">
        <ele>1060.3</ele>
        <time>2022-05-09T07:00:11.030Z</time>
      </trkpt>
      <trkpt lat="45.06336" lon="4.10633">
        <ele>1059.74</ele>
        <time>2022-05-09T07:00:30.089Z</time>
      </trkpt>
      <trkpt lat="45.06317" lon="4.1065">
        <ele>1056.94</ele>
        <time>2022-05-09T07:00:48.349Z</time>
      </trkpt>
      <trkpt lat="45.06299" lon="4.10669">
        <ele>1057.91</ele>
        <time>2022-05-09T07:01:06.870Z</time>
      </trkpt>
      <trkpt lat="45.06281" lon="4.1069">
        <ele>1056.33</ele>
        <time>2022-05-09T07:01:25.889Z</time>
      </trkpt>
      <trkpt lat="45.06261" lon="4.10707">
        <ele>1053.18</ele>
        <time>2022-05-09T07:01:46.054Z</time>
      </trkpt>
      <trkpt lat="45.06239" lon="4.10714">
        <ele>1050.11</ele>
        <time>2022-05-09T07:02:06.235Z</time>
      </trkpt>
      <trkpt lat="45.06216" lon="4.10712">
        <ele>1056.88</ele>
        <time>2022-05-09T07:02:30.030Z</time>
      </trkpt>
      <trkpt lat="45.06193" lon="4.10712">
        <ele>1046.54</ele>
        <time>2022-05-09T07:03:18.747Z</time>
      </trkpt>
      <trkpt lat="45.06171" lon="4.10717">
        <ele>1049.68</ele>
        <time>2022-05-09T07:03:43.987Z</time>
      </trkpt>
      <trkpt lat="45.06149" lon="4.10725">
        <ele>1056.88</ele>
        <time>2022-05-09T07:04:10.308Z</time>
      </trkpt>
      <trkpt lat="45.06126" lon="4.10735">
        <ele>1057.78</ele>
        <time>2022-05-09T07:04:36.091Z</time>
      </trkpt>
      <trkpt lat="45.06104" lon="4.10742">
        <ele>1055.57</ele>
        <time>2022-05-09T07:05:00.855Z</time>
      </trkpt>
      <trkpt lat="45.06081" lon="4.10743">
        <ele>1057.78</ele>
        <time>2022-05-09T07:05:25.000Z</time>
      </trkpt>
      <trkpt lat="45.0606" lon="4.10727">
        <ele>1053.24</ele>
        <time>2022-05-09T07:05:50.154Z</time>
      </trkpt>
      <trkpt lat="45.06038" lon="4.10717">
        <ele>1053.67</ele>
        <time>2022-05-09T07:06:10.155Z</time>
      </trkpt>
      <trkpt lat="45.06016" lon="4.10705">
        <ele>1050.57</ele>
        <time>2022-05-09T07:06:31.894Z</time>
      </trkpt>
      <trkpt lat="45.05994" lon="4.10697">
        <ele>1050.84</ele>
        <time>2022-05-09T07:06:52.028Z</time>
      </trkpt>
      <trkpt lat="45.05972" lon="4.10687">
        <ele>1055.98</ele>
        <time>2022-05-09T07:07:11.748Z</time>
      </trkpt>
      <trkpt lat="45.05949" lon="4.1068">
        <ele>1051.4</ele>
        <time>2022-05-09T07:07:32.969Z</time>
      </trkpt>
      <trkpt lat="45.05926" lon="4.10676">
        <ele>1050.88</ele>
        <time>2022-05-09T07:07:55.226Z</time>
      </trkpt>
      <trkpt lat="45.05903" lon="4.10671">
        <ele>1054.69</ele>
        <time>2022-05-09T07:08:16.072Z</time>
      </trkpt>
      <trkpt lat="45.05885" lon="4.10649">
        <ele>1055.55</ele>
        <time>2022-05-09T07:08:36.667Z</time>
      </trkpt>
      <trkpt lat="45.05867" lon="4.10623">
        <ele>1050.88</ele>
        <time>2022-05-09T07:09:21.000Z</time>
      </trkpt>
      <trkpt lat="45.05844" lon="4.10614">
        <ele>1048.98</ele>
        <time>2022-05-09T07:09:52.286Z</time>
      </trkpt>
      <trkpt lat="45.05822" lon="4.10621">
        <ele>1050.27</ele>
        <time>2022-05-09T07:10:14.034Z</time>
      </trkpt>
      <trkpt lat="45.05805" lon="4.10641">
        <ele>1050.68</ele>
        <time>2022-05-09T07:10:36.273Z</time>
      </trkpt>
      <trkpt lat="45.05785" lon="4.10656">
        <ele>1050.68</ele>
        <time>2022-05-09T07:11:00.049Z</time>
      </trkpt>
      <trkpt lat="45.05764" lon="4.10672">
        <ele>1050.68</ele>
        <time>2022-05-09T07:11:22.969Z</time>
      </trkpt>
      <trkpt lat="45.05743" lon="4.10681">
        <ele>1049.69</ele>
        <time>2022-05-09T07:11:44.035Z</time>
      </trkpt>
      <trkpt lat="45.0572" lon="4.10674">
        <ele>1047.72</ele>
        <time>2022-05-09T07:12:04.852Z</time>
      </trkpt>
      <trkpt lat="45.05714" lon="4.10643">
        <ele>1045.51</ele>
        <time>2022-05-09T07:12:24.631Z</time>
      </trkpt>
      <trkpt lat="45.05722" lon="4.10614">
        <ele>1040.55</ele>
        <time>2022-05-09T07:12:45.035Z</time>
      </trkpt>
      <trkpt lat="45.0574" lon="4.10594">
        <ele>1035.31</ele>
        <time>2022-05-09T07:13:05.946Z</time>
      </trkpt>
      <trkpt lat="45.05725" lon="4.10571">
        <ele>1035.06</ele>
        <time>2022-05-09T07:13:32.709Z</time>
      </trkpt>
      <trkpt lat="45.05703" lon="4.10559">
        <ele>1029.95</ele>
        <time>2022-05-09T07:13:53.815Z</time>
      </trkpt>
      <trkpt lat="45.05681" lon="4.10549">
        <ele>1033.81</ele>
        <time>2022-05-09T07:14:14.093Z</time>
      </trkpt>
      <trkpt lat="45.05663" lon="4.10529">
        <ele>1032.42</ele>
        <time>2022-05-09T07:14:37.666Z</time>
      </trkpt>
      <trkpt lat="45.05654" lon="4.105">
        <ele>1031.16</ele>
        <time>2022-05-09T07:14:56.000Z</time>
      </trkpt>
      <trkpt lat="45.05643" lon="4.10471">
        <ele>1027.15</ele>
        <time>2022-05-09T07:15:19.751Z</time>
      </trkpt>
      <trkpt lat="45.05632" lon="4.10442">
        <ele>1025.26</ele>
        <time>2022-05-09T07:15:43.268Z</time>
      </trkpt>
      <trkpt lat="45.05622" lon="4.10414">
        <ele>1021.75</ele>
        <time>2022-05-09T07:16:07.791Z</time>
      </trkpt>
      <trkpt lat="45.05613" lon="4.10384">
        <ele>1013.72</ele>
        <time>2022-05-09T07:16:30.327Z</time>
      </trkpt>
      <trkpt lat="45.05602" lon="4.10356">
        <ele>1010.74</ele>
        <time>2022-05-09T07:16:54.594Z</time>
      </trkpt>
      <trkpt lat="45.05585" lon="4.10335">
        <ele>1001.7</ele>
        <time>2022-05-09T07:17:21.193Z</time>
      </trkpt>
      <trkpt lat="45.05568" lon="4.10313">
        <ele>999.96</ele>
        <time>2022-05-09T07:17:44.190Z</time>
      </trkpt>
      <trkpt lat="45.05551" lon="4.1029">
        <ele>997.23</ele>
        <time>2022-05-09T07:18:06.554Z</time>
      </trkpt>
      <trkpt lat="45.05532" lon="4.10274">
        <ele>997.01</ele>
        <time>2022-05-09T07:18:28.348Z</time>
      </trkpt>
      <trkpt lat="45.05516" lon="4.10251">
        <ele>990.51</ele>
        <time>2022-05-09T07:18:47.130Z</time>
      </trkpt>
      <trkpt lat="45.05496" lon="4.10235">
        <ele>996.38</ele>
        <time>2022-05-09T07:19:06.831Z</time>
      </trkpt>
      <trkpt lat="45.05479" lon="4.10213">
        <ele>997.12</ele>
        <time>2022-05-09T07:19:28.975Z</time>
      </trkpt>
      <trkpt lat="45.05469" lon="4.10184">
        <ele>988.57</ele>
        <time>2022-05-09T07:20:45.095Z</time>
      </trkpt>
      <trkpt lat="45.05453" lon="4.1016">
        <ele>988.09</ele>
        <time>2022-05-09T07:21:16.853Z</time>
      </trkpt>
      <trkpt lat="45.05432" lon="4.10147">
        <ele>980.54</ele>
        <time>2022-05-09T07:21:46.871Z</time>
      </trkpt>
      <trkpt lat="45.05412" lon="4.10132">
        <ele>977.19</ele>
        <time>2022-05-09T07:22:24.230Z</time>
      </trkpt>
      <trkpt lat="45.05402" lon="4.10101">
        <ele>974.93</ele>
        <time>2022-05-09T07:22:54.087Z</time>
      </trkpt>
      <trkpt lat="45.05387" lon="4.10077">
        <ele>975.11</ele>
        <time>2022-05-09T07:23:17.008Z</time>
      </trkpt>
      <trkpt lat="45.05378" lon="4.10048">
        <ele>978.39</ele>
        <time>2022-05-09T07:23:38.034Z</time>
      </trkpt>
      <trkpt lat="45.05372" lon="4.10017">
        <ele>973</ele>
        <time>2022-05-09T07:24:00.686Z</time>
      </trkpt>
      <trkpt lat="45.05369" lon="4.09985">
        <ele>970.09</ele>
        <time>2022-05-09T07:24:22.291Z</time>
      </trkpt>
      <trkpt lat="45.05368" lon="4.09953">
        <ele>968.13</ele>
        <time>2022-05-09T07:24:44.213Z</time>
      </trkpt>
      <trkpt lat="45.0536" lon="4.09923">
        <ele>971.23</ele>
        <time>2022-05-09T07:25:03.771Z</time>
      </trkpt>
      <trkpt lat="45.0535" lon="4.09893">
        <ele>973.28</ele>
        <time>2022-05-09T07:25:23.127Z</time>
      </trkpt>
      <trkpt lat="45.0534" lon="4.09862">
        <ele>972.05</ele>
        <time>2022-05-09T07:25:43.291Z</time>
      </trkpt>
      <trkpt lat="45.05327" lon="4.09835">
        <ele>972.81</ele>
        <time>2022-05-09T07:26:01.149Z</time>
      </trkpt>
      <trkpt lat="45.05316" lon="4.09806">
        <ele>973.3</ele>
        <time>2022-05-09T07:26:20.948Z</time>
      </trkpt>
      <trkpt lat="45.05307" lon="4.09776">
        <ele>975.95</ele>
        <time>2022-05-09T07:26:45.289Z</time>
      </trkpt>
      <trkpt lat="45.05296" lon="4.09749">
        <ele>971.09</ele>
        <time>2022-05-09T07:27:11.812Z</time>
      </trkpt>
      <trkpt lat="45.0529" lon="4.09716">
        <ele>982.95</ele>
        <time>2022-05-09T07:27:37.067Z</time>
      </trkpt>
      <trkpt lat="45.05296" lon="4.09686">
        <ele>974.57</ele>
        <time>2022-05-09T07:28:44.000Z</time>
      </trkpt>
      <trkpt lat="45.05298" lon="4.09654">
        <ele>978.93</ele>
        <time>2022-05-09T07:29:09.190Z</time>
      </trkpt>
      <trkpt lat="45.05296" lon="4.09621">
        <ele>980.5</ele>
        <time>2022-05-09T07:29:26.338Z</time>
      </trkpt>
      <trkpt lat="45.05307" lon="4.09591">
        <ele>975.18</ele>
        <time>2022-05-09T07:30:50.931Z</time>
      </trkpt>
      <trkpt lat="45.05317" lon="4.09563">
        <ele>972.91</ele>
        <time>2022-05-09T07:31:11.832Z</time>
      </trkpt>
      <trkpt lat="45.05325" lon="4.09533">
        <ele>968.78</ele>
        <time>2022-05-09T07:31:32.034Z</time>
      </trkpt>
      <trkpt lat="45.05323" lon="4.09501">
        <ele>957.52</ele>
        <time>2022-05-09T07:32:08.969Z</time>
      </trkpt>
      <trkpt lat="45.05303" lon="4.09487">
        <ele>955.61</ele>
        <time>2022-05-09T07:32:31.275Z</time>
      </trkpt>
      <trkpt lat="45.05297" lon="4.09455">
        <ele>953.82</ele>
        <time>2022-05-09T07:33:04.935Z</time>
      </trkpt>
      <trkpt lat="45.0529" lon="4.09425">
        <ele>967.77</ele>
        <time>2022-05-09T07:36:00.577Z</time>
      </trkpt>
      <trkpt lat="45.0527" lon="4.09409">
        <ele>968.74</ele>
        <time>2022-05-09T07:36:19.953Z</time>
      </trkpt>
      <trkpt lat="45.05275" lon="4.09377">
        <ele>961.01</ele>
        <time>2022-05-09T07:36:54.113Z</time>
      </trkpt>
      <trkpt lat="45.05284" lon="4.09347">
        <ele>960.75</ele>
        <time>2022-05-09T07:37:58.939Z</time>
      </trkpt>
      <trkpt lat="45.05274" lon="4.09317">
        <ele>959.39</ele>
        <time>2022-05-09T07:38:28.594Z</time>
      </trkpt>
      <trkpt lat="45.05266" lon="4.09287">
        <ele>955.33</ele>
        <time>2022-05-09T07:38:55.000Z</time>
      </trkpt>
      <trkpt lat="45.05252" lon="4.0926">
        <ele>960.78</ele>
        <time>2022-05-09T07:39:19.075Z</time>
      </trkpt>
      <trkpt lat="45.05233" lon="4.09242">
        <ele>959.94</ele>
        <time>2022-05-09T07:39:40.755Z</time>
      </trkpt>
      <trkpt lat="45.05212" lon="4.09226">
        <ele>963.03</ele>
        <time>2022-05-09T07:40:07.537Z</time>
      </trkpt>
      <trkpt lat="45.05196" lon="4.09204">
        <ele>958.45</ele>
        <time>2022-05-09T07:40:36.096Z</time>
      </trkpt>
      <trkpt lat="45.05178" lon="4.09183">
        <ele>950.52</ele>
        <time>2022-05-09T07:40:58.334Z</time>
      </trkpt>
      <trkpt lat="45.05156" lon="4.09174">
        <ele>947.78</ele>
        <time>2022-05-09T07:41:23.598Z</time>
      </trkpt>
      <trkpt lat="45.05134" lon="4.09177">
        <ele>947.04</ele>
        <time>2022-05-09T07:41:50.755Z</time>
      </trkpt>
      <trkpt lat="45.05111" lon="4.09181">
        <ele>935.43</ele>
        <time>2022-05-09T07:42:30.438Z</time>
      </trkpt>
      <trkpt lat="45.0509" lon="4.09191">
        <ele>947.09</ele>
        <time>2022-05-09T07:43:07.000Z</time>
      </trkpt>
      <trkpt lat="45.0507" lon="4.09174">
        <ele>953.13</ele>
        <time>2022-05-09T07:43:24.000Z</time>
      </trkpt>
      <trkpt lat="45.05054" lon="4.09151">
        <ele>953.93</ele>
        <time>2022-05-09T07:43:46.000Z</time>
      </trkpt>
      <trkpt lat="45.05049" lon="4.0912">
        <ele>961.09</ele>
        <time>2022-05-09T07:44:52.000Z</time>
      </trkpt>
      <trkpt lat="45.0503" lon="4.09103">
        <ele>957.95</ele>
        <time>2022-05-09T07:45:15.693Z</time>
      </trkpt>
      <trkpt lat="45.05026" lon="4.09071">
        <ele>954.33</ele>
        <time>2022-05-09T07:45:54.694Z</time>
      </trkpt>
      <trkpt lat="45.05008" lon="4.09052">
        <ele>968.51</ele>
        <time>2022-05-09T07:46:25.020Z</time>
      </trkpt>
      <trkpt lat="45.05" lon="4.09021">
        <ele>960.12</ele>
        <time>2022-05-09T07:47:16.096Z</time>
      </trkpt>
      <trkpt lat="45.04995" lon="4.0899">
        <ele>966.76</ele>
        <time>2022-05-09T07:47:50.936Z</time>
      </trkpt>
      <trkpt lat="45.04987" lon="4.08959">
        <ele>966.62</ele>
        <time>2022-05-09T07:48:30.013Z</time>
      </trkpt>
      <trkpt lat="45.04974" lon="4.08932">
        <ele>965.89</ele>
        <time>2022-05-09T07:49:03.000Z</time>
      </trkpt>
      <trkpt lat="45.04974" lon="4.089">
        <ele>962.41</ele>
        <time>2022-05-09T07:50:07.717Z</time>
      </trkpt>
      <trkpt lat="45.04969" lon="4.0887">
        <ele>966.2</ele>
        <time>2022-05-09T07:50:37.957Z</time>
      </trkpt>
      <trkpt lat="45.04961" lon="4.08839">
        <ele>977.79</ele>
        <time>2022-05-09T07:51:13.000Z</time>
      </trkpt>
      <trkpt lat="45.04957" lon="4.08808">
        <ele>972.16</ele>
        <time>2022-05-09T07:51:46.735Z</time>
      </trkpt>
      <trkpt lat="45.04968" lon="4.0878">
        <ele>978.86</ele>
        <time>2022-05-09T07:52:18.000Z</time>
      </trkpt>
      <trkpt lat="45.0498" lon="4.08753">
        <ele>969.6</ele>
        <time>2022-05-09T07:53:07.000Z</time>
      </trkpt>
      <trkpt lat="45.04986" lon="4.08721">
        <ele>972.67</ele>
        <time>2022-05-09T07:54:57.139Z</time>
      </trkpt>
      <trkpt lat="45.04975" lon="4.08694">
        <ele>978.19</ele>
        <time>2022-05-09T07:55:12.000Z</time>
      </trkpt>
      <trkpt lat="45.04969" lon="4.08662">
        <ele>978.39</ele>
        <time>2022-05-09T07:55:33.958Z</time>
      </trkpt>
      <trkpt lat="45.04965" lon="4.0863">
        <ele>976.87</ele>
        <time>2022-05-09T07:55:55.034Z</time>
      </trkpt>
      <trkpt lat="45.04953" lon="4.08604">
        <ele>976.51</ele>
        <time>2022-05-09T07:56:14.975Z</time>
      </trkpt>
      <trkpt lat="45.04943" lon="4.08575">
        <ele>974.25</ele>
        <time>2022-05-09T07:56:36.013Z</time>
      </trkpt>
      <trkpt lat="45.04936" lon="4.08542">
        <ele>977.56</ele>
        <time>2022-05-09T07:56:57.080Z</time>
      </trkpt>
      <trkpt lat="45.04931" lon="4.08511">
        <ele>970.61</ele>
        <time>2022-05-09T07:57:16.695Z</time>
      </trkpt>
      <trkpt lat="45.04933" lon="4.08477">
        <ele>973.13</ele>
        <time>2022-05-09T07:57:41.939Z</time>
      </trkpt>
      <trkpt lat="45.04923" lon="4.08448">
        <ele>971.56</ele>
        <time>2022-05-09T07:58:07.539Z</time>
      </trkpt>
      <trkpt lat="45.04914" lon="4.08416">
        <ele>980.86</ele>
        <time>2022-05-09T07:58:38.076Z</time>
      </trkpt>
      <trkpt lat="45.04911" lon="4.08384">
        <ele>993.1</ele>
        <time>2022-05-09T07:59:05.000Z</time>
      </trkpt>
      <trkpt lat="45.04903" lon="4.08354">
        <ele>989.01</ele>
        <time>2022-05-09T07:59:41.053Z</time>
      </trkpt>
      <trkpt lat="45.04892" lon="4.08327">
        <ele>987.38</ele>
        <time>2022-05-09T08:00:16.518Z</time>
      </trkpt>
      <trkpt lat="45.04875" lon="4.08302">
        <ele>985.82</ele>
        <time>2022-05-09T08:00:37.372Z</time>
      </trkpt>
      <trkpt lat="45.04855" lon="4.08287">
        <ele>987.23</ele>
        <time>2022-05-09T08:01:02.193Z</time>
      </trkpt>
      <trkpt lat="45.04838" lon="4.08263">
        <ele>983.33</ele>
        <time>2022-05-09T08:03:13.000Z</time>
      </trkpt>
      <trkpt lat="45.04823" lon="4.08238">
        <ele>980.9</ele>
        <time>2022-05-09T08:03:34.898Z</time>
      </trkpt>
      <trkpt lat="45.04807" lon="4.08215">
        <ele>977.62</ele>
        <time>2022-05-09T08:04:00.584Z</time>
      </trkpt>
      <trkpt lat="45.04794" lon="4.08187">
        <ele>975.26</ele>
        <time>2022-05-09T08:04:25.716Z</time>
      </trkpt>
      <trkpt lat="45.0478" lon="4.08159">
        <ele>977.02</ele>
        <time>2022-05-09T08:04:51.172Z</time>
      </trkpt>
      <trkpt lat="45.04763" lon="4.08134">
        <ele>970.55</ele>
        <time>2022-05-09T08:05:15.053Z</time>
      </trkpt>
      <trkpt lat="45.04746" lon="4.08114">
        <ele>966.73</ele>
        <time>2022-05-09T08:05:36.898Z</time>
      </trkpt>
      <trkpt lat="45.04734" lon="4.08087">
        <ele>962.05</ele>
        <time>2022-05-09T08:06:01.136Z</time>
      </trkpt>
      <trkpt lat="45.04719" lon="4.08063">
        <ele>961.74</ele>
        <time>2022-05-09T08:06:36.000Z</time>
      </trkpt>
      <trkpt lat="45.04707" lon="4.08036">
        <ele>957.69</ele>
        <time>2022-05-09T08:07:16.000Z</time>
      </trkpt>
      <trkpt lat="45.04689" lon="4.08016">
        <ele>951.76</ele>
        <time>2022-05-09T08:07:56.476Z</time>
      </trkpt>
      <trkpt lat="45.04667" lon="4.08006">
        <ele>942.44</ele>
        <time>2022-05-09T08:08:46.000Z</time>
      </trkpt>
      <trkpt lat="45.0465" lon="4.07985">
        <ele>939.28</ele>
        <time>2022-05-09T08:09:17.000Z</time>
      </trkpt>
      <trkpt lat="45.04634" lon="4.07962">
        <ele>933.62</ele>
        <time>2022-05-09T08:09:44.000Z</time>
      </trkpt>
      <trkpt lat="45.04629" lon="4.07929">
        <ele>932.9</ele>
        <time>2022-05-09T08:10:11.712Z</time>
      </trkpt>
      <trkpt lat="45.04615" lon="4.07904">
        <ele>927.5</ele>
        <time>2022-05-09T08:10:35.151Z</time>
      </trkpt>
      <trkpt lat="45.04602" lon="4.07877">
        <ele>926.26</ele>
        <time>2022-05-09T08:10:55.699Z</time>
      </trkpt>
      <trkpt lat="45.04583" lon="4.07858">
        <ele>920.89</ele>
        <time>2022-05-09T08:11:16.872Z</time>
      </trkpt>
      <trkpt lat="45.04565" lon="4.07839">
        <ele>919.32</ele>
        <time>2022-05-09T08:11:42.490Z</time>
      </trkpt>
      <trkpt lat="45.04558" lon="4.07808">
        <ele>907.66</ele>
        <time>2022-05-09T08:12:10.051Z</time>
      </trkpt>
      <trkpt lat="45.0455" lon="4.07778">
        <ele>908.07</ele>
        <time>2022-05-09T08:12:39.435Z</time>
      </trkpt>
      <trkpt lat="45.04545" lon="4.07747">
        <ele>905.31</ele>
        <time>2022-05-09T08:13:04.019Z</time>
      </trkpt>
      <trkpt lat="45.04535" lon="4.07717">
        <ele>902.31</ele>
        <time>2022-05-09T08:13:27.092Z</time>
      </trkpt>
      <trkpt lat="45.04524" lon="4.07687">
        <ele>894.33</ele>
        <time>2022-05-09T08:13:53.760Z</time>
      </trkpt>
      <trkpt lat="45.04514" lon="4.07658">
        <ele>895.85</ele>
        <time>2022-05-09T08:14:28.937Z</time>
      </trkpt>
      <trkpt lat="45.04507" lon="4.07625">
        <ele>895.06</ele>
        <time>2022-05-09T08:14:52.876Z</time>
      </trkpt>
      <trkpt lat="45.04499" lon="4.07595">
        <ele>847.23</ele>
        <time>2022-05-09T08:15:15.171Z</time>
      </trkpt>
      <trkpt lat="45.04492" lon="4.07565">
        <ele>847.19</ele>
        <time>2022-05-09T08:15:34.740Z</time>
      </trkpt>
      <trkpt lat="45.04494" lon="4.07533">
        <ele>847.19</ele>
        <time>2022-05-09T08:15:56.000Z</time>
      </trkpt>
      <trkpt lat="45.045" lon="4.07502">
        <ele>847.19</ele>
        <time>2022-05-09T08:16:19.000Z</time>
      </trkpt>
      <trkpt lat="45.04512" lon="4.07473">
        <ele>891.83</ele>
        <time>2022-05-09T08:16:44.000Z</time>
      </trkpt>
      <trkpt lat="45.0451" lon="4.0744">
        <ele>891.36</ele>
        <time>2022-05-09T08:17:18.000Z</time>
      </trkpt>
      <trkpt lat="45.04508" lon="4.07407">
        <ele>886.38</ele>
        <time>2022-05-09T08:17:39.141Z</time>
      </trkpt>
      <trkpt lat="45.04502" lon="4.07376">
        <ele>886.36</ele>
        <time>2022-05-09T08:18:01.000Z</time>
      </trkpt>
      <trkpt lat="45.04482" lon="4.07354">
        <ele>886.38</ele>
        <time>2022-05-09T08:18:23.875Z</time>
      </trkpt>
      <trkpt lat="45.04464" lon="4.07335">
        <ele>882.21</ele>
        <time>2022-05-09T08:18:55.691Z</time>
      </trkpt>
      <trkpt lat="45.04457" lon="4.07304">
        <ele>874.31</ele>
        <time>2022-05-09T08:19:25.000Z</time>
      </trkpt>
      <trkpt lat="45.04442" lon="4.07279">
        <ele>873.71</ele>
        <time>2022-05-09T08:19:52.599Z</time>
      </trkpt>
      <trkpt lat="45.04433" lon="4.0725">
        <ele>866.56</ele>
        <time>2022-05-09T08:20:21.956Z</time>
      </trkpt>
      <trkpt lat="45.04418" lon="4.07224">
        <ele>861.14</ele>
        <time>2022-05-09T08:20:47.056Z</time>
      </trkpt>
      <trkpt lat="45.04397" lon="4.07234">
        <ele>855.26</ele>
        <time>2022-05-09T08:21:40.140Z</time>
      </trkpt>
      <trkpt lat="45.04385" lon="4.07263">
        <ele>852.63</ele>
        <time>2022-05-09T08:22:03.472Z</time>
      </trkpt>
      <trkpt lat="45.04371" lon="4.07288">
        <ele>850.01</ele>
        <time>2022-05-09T08:22:25.596Z</time>
      </trkpt>
      <trkpt lat="45.0435" lon="4.07276">
        <ele>850.46</ele>
        <time>2022-05-09T08:24:49.000Z</time>
      </trkpt>
      <trkpt lat="45.04329" lon="4.07261">
        <ele>850.49</ele>
        <time>2022-05-09T08:25:08.938Z</time>
      </trkpt>
      <trkpt lat="45.04305" lon="4.0726">
        <ele>845.61</ele>
        <time>2022-05-09T08:25:29.936Z</time>
      </trkpt>
      <trkpt lat="45.04281" lon="4.07266">
        <ele>844.49</ele>
        <time>2022-05-09T08:25:48.515Z</time>
      </trkpt>
      <trkpt lat="45.04259" lon="4.07273">
        <ele>845.84</ele>
        <time>2022-05-09T08:26:07.458Z</time>
      </trkpt>
      <trkpt lat="45.04237" lon="4.07276">
        <ele>841.77</ele>
        <time>2022-05-09T08:26:25.587Z</time>
      </trkpt>
      <trkpt lat="45.04214" lon="4.07271">
        <ele>844.86</ele>
        <time>2022-05-09T08:26:44.537Z</time>
      </trkpt>
      <trkpt lat="45.04193" lon="4.07257">
        <ele>846.17</ele>
        <time>2022-05-09T08:27:03.970Z</time>
      </trkpt>
      <trkpt lat="45.0418" lon="4.0723">
        <ele>846.17</ele>
        <time>2022-05-09T08:27:25.372Z</time>
      </trkpt>
      <trkpt lat="45.04163" lon="4.07209">
        <ele>846.17</ele>
        <time>2022-05-09T08:27:45.152Z</time>
      </trkpt>
      <trkpt lat="45.04143" lon="4.07195">
        <ele>845.17</ele>
        <time>2022-05-09T08:28:03.931Z</time>
      </trkpt>
      <trkpt lat="45.04122" lon="4.0718">
        <ele>846.17</ele>
        <time>2022-05-09T08:28:23.097Z</time>
      </trkpt>
      <trkpt lat="45.04102" lon="4.07165">
        <ele>846.17</ele>
        <time>2022-05-09T08:28:42.000Z</time>
      </trkpt>
      <trkpt lat="45.04085" lon="4.07143">
        <ele>847.57</ele>
        <time>2022-05-09T08:29:02.635Z</time>
      </trkpt>
      <trkpt lat="45.04069" lon="4.07121">
        <ele>847.17</ele>
        <time>2022-05-09T08:29:21.318Z</time>
      </trkpt>
      <trkpt lat="45.0405" lon="4.07101">
        <ele>847.17</ele>
        <time>2022-05-09T08:29:42.058Z</time>
      </trkpt>
      <trkpt lat="45.04029" lon="4.07083">
        <ele>847.17</ele>
        <time>2022-05-09T08:30:02.096Z</time>
      </trkpt>
      <trkpt lat="45.04009" lon="4.0707">
        <ele>847.17</ele>
        <time>2022-05-09T08:30:21.712Z</time>
      </trkpt>
      <trkpt lat="45.03985" lon="4.07066">
        <ele>847.17</ele>
        <time>2022-05-09T08:30:42.000Z</time>
      </trkpt>
      <trkpt lat="45.03963" lon="4.07057">
        <ele>837.77</ele>
        <time>2022-05-09T08:31:00.952Z</time>
      </trkpt>
      <trkpt lat="45.03942" lon="4.07045">
        <ele>841.84</ele>
        <time>2022-05-09T08:32:03.712Z</time>
      </trkpt>
      <trkpt lat="45.0393" lon="4.07016">
        <ele>841.74</ele>
        <time>2022-05-09T08:32:23.000Z</time>
      </trkpt>
      <trkpt lat="45.03912" lon="4.06994">
        <ele>837.77</ele>
        <time>2022-05-09T08:32:41.435Z</time>
      </trkpt>
      <trkpt lat="45.03892" lon="4.06974">
        <ele>836.04</ele>
        <time>2022-05-09T08:33:02.619Z</time>
      </trkpt>
      <trkpt lat="45.03882" lon="4.06944">
        <ele>835.47</ele>
        <time>2022-05-09T08:33:21.000Z</time>
      </trkpt>
      <trkpt lat="45.03874" lon="4.06914">
        <ele>835.31</ele>
        <time>2022-05-09T08:33:39.719Z</time>
      </trkpt>
      <trkpt lat="45.03864" lon="4.06886">
        <ele>837.42</ele>
        <time>2022-05-09T08:33:57.096Z</time>
      </trkpt>
      <trkpt lat="45.03859" lon="4.06852">
        <ele>817.33</ele>
        <time>2022-05-09T08:34:17.876Z</time>
      </trkpt>
      <trkpt lat="45.03854" lon="4.06821">
        <ele>815.96</ele>
        <time>2022-05-09T08:34:37.097Z</time>
      </trkpt>
      <trkpt lat="45.0385" lon="4.06789">
        <ele>838.2</ele>
        <time>2022-05-09T08:34:54.937Z</time>
      </trkpt>
      <trkpt lat="45.03846" lon="4.06758">
        <ele>815.96</ele>
        <time>2022-05-09T08:35:14.000Z</time>
      </trkpt>
      <trkpt lat="45.03839" lon="4.06726">
        <ele>833.78</ele>
        <time>2022-05-09T08:35:32.536Z</time>
      </trkpt>
      <trkpt lat="45.03821" lon="4.06704">
        <ele>834.39</ele>
        <time>2022-05-09T08:35:54.497Z</time>
      </trkpt>
      <trkpt lat="45.03805" lon="4.0668">
        <ele>836.36</ele>
        <time>2022-05-09T08:36:16.000Z</time>
      </trkpt>
      <trkpt lat="45.03789" lon="4.06658">
        <ele>826.71</ele>
        <time>2022-05-09T08:36:34.583Z</time>
      </trkpt>
      <trkpt lat="45.03773" lon="4.06634">
        <ele>829.18</ele>
        <time>2022-05-09T08:38:09.000Z</time>
      </trkpt>
      <trkpt lat="45.03754" lon="4.06615">
        <ele>834.35</ele>
        <time>2022-05-09T08:38:27.516Z</time>
      </trkpt>
      <trkpt lat="45.03739" lon="4.06592">
        <ele>834.35</ele>
        <time>2022-05-09T08:38:47.000Z</time>
      </trkpt>
      <trkpt lat="45.03728" lon="4.06563">
        <ele>834.25</ele>
        <time>2022-05-09T08:39:05.491Z</time>
      </trkpt>
      <trkpt lat="45.03719" lon="4.06534">
        <ele>833.9</ele>
        <time>2022-05-09T08:39:24.098Z</time>
      </trkpt>
      <trkpt lat="45.03708" lon="4.06505">
        <ele>834.25</ele>
        <time>2022-05-09T08:39:42.638Z</time>
      </trkpt>
      <trkpt lat="45.03695" lon="4.06478">
        <ele>833.15</ele>
        <time>2022-05-09T08:40:02.676Z</time>
      </trkpt>
      <trkpt lat="45.03686" lon="4.06448">
        <ele>833.25</ele>
        <time>2022-05-09T08:40:23.000Z</time>
      </trkpt>
      <trkpt lat="45.03682" lon="4.06415">
        <ele>833.25</ele>
        <time>2022-05-09T08:40:41.016Z</time>
      </trkpt>
      <trkpt lat="45.03678" lon="4.06383">
        <ele>834.48</ele>
        <time>2022-05-09T08:41:01.037Z</time>
      </trkpt>
      <trkpt lat="45.0367" lon="4.06352">
        <ele>828.08</ele>
        <time>2022-05-09T08:41:19.173Z</time>
      </trkpt>
      <trkpt lat="45.03657" lon="4.06325">
        <ele>826.05</ele>
        <time>2022-05-09T08:41:39.595Z</time>
      </trkpt>
      <trkpt lat="45.03641" lon="4.06301">
        <ele>826.63</ele>
        <time>2022-05-09T08:42:00.057Z</time>
      </trkpt>
      <trkpt lat="45.03626" lon="4.06276">
        <ele>826.58</ele>
        <time>2022-05-09T08:42:20.892Z</time>
      </trkpt>
      <trkpt lat="45.03613" lon="4.06249">
        <ele>822.29</ele>
        <time>2022-05-09T08:42:41.000Z</time>
      </trkpt>
      <trkpt lat="45.03619" lon="4.06216">
        <ele>821.14</ele>
        <time>2022-05-09T08:44:11.999Z</time>
      </trkpt>
      <trkpt lat="45.03628" lon="4.06187">
        <ele>820.24</ele>
        <time>2022-05-09T08:44:30.559Z</time>
      </trkpt>
      <trkpt lat="45.03638" lon="4.06157">
        <ele>819.74</ele>
        <time>2022-05-09T08:45:32.003Z</time>
      </trkpt>
      <trkpt lat="45.03647" lon="4.06126">
        <ele>822.74</ele>
        <time>2022-05-09T08:45:51.513Z</time>
      </trkpt>
      <trkpt lat="45.03648" lon="4.06093">
        <ele>824.25</ele>
        <time>2022-05-09T08:46:19.495Z</time>
      </trkpt>
      <trkpt lat="45.0364" lon="4.06062">
        <ele>823.74</ele>
        <time>2022-05-09T08:46:40.042Z</time>
      </trkpt>
      <trkpt lat="45.03638" lon="4.0603">
        <ele>822.94</ele>
        <time>2022-05-09T08:47:00.715Z</time>
      </trkpt>
      <trkpt lat="45.0364" lon="4.05997">
        <ele>822.94</ele>
        <time>2022-05-09T08:47:21.000Z</time>
      </trkpt>
      <trkpt lat="45.03645" lon="4.05965">
        <ele>822.44</ele>
        <time>2022-05-09T08:47:41.000Z</time>
      </trkpt>
      <trkpt lat="45.03647" lon="4.05933">
        <ele>820.34</ele>
        <time>2022-05-09T08:47:59.102Z</time>
      </trkpt>
      <trkpt lat="45.03647" lon="4.059">
        <ele>819.64</ele>
        <time>2022-05-09T08:48:21.000Z</time>
      </trkpt>
      <trkpt lat="45.03656" lon="4.05869">
        <ele>819.31</ele>
        <time>2022-05-09T08:48:42.158Z</time>
      </trkpt>
      <trkpt lat="45.03656" lon="4.05836">
        <ele>816.63</ele>
        <time>2022-05-09T08:49:56.175Z</time>
      </trkpt>
      <trkpt lat="45.03659" lon="4.05803">
        <ele>816.83</ele>
        <time>2022-05-09T08:50:17.983Z</time>
      </trkpt>
      <trkpt lat="45.0366" lon="4.05771">
        <ele>817.33</ele>
        <time>2022-05-09T08:50:39.520Z</time>
      </trkpt>
      <trkpt lat="45.0366" lon="4.05739">
        <ele>816.91</ele>
        <time>2022-05-09T08:50:58.524Z</time>
      </trkpt>
      <trkpt lat="45.03663" lon="4.05706">
        <ele>816.63</ele>
        <time>2022-05-09T08:51:18.000Z</time>
      </trkpt>
      <trkpt lat="45.03668" lon="4.05672">
        <ele>817.13</ele>
        <time>2022-05-09T08:51:37.736Z</time>
      </trkpt>
      <trkpt lat="45.03663" lon="4.0564">
        <ele>817.33</ele>
        <time>2022-05-09T08:51:55.076Z</time>
      </trkpt>
      <trkpt lat="45.03666" lon="4.05608">
        <ele>817.33</ele>
        <time>2022-05-09T08:52:13.520Z</time>
      </trkpt>
      <trkpt lat="45.03669" lon="4.05576">
        <ele>816.13</ele>
        <time>2022-05-09T08:52:35.000Z</time>
      </trkpt>
      <trkpt lat="45.03673" lon="4.05544">
        <ele>816.13</ele>
        <time>2022-05-09T08:52:52.715Z</time>
      </trkpt>
      <trkpt lat="45.03674" lon="4.05512">
        <ele>816.23</ele>
        <time>2022-05-09T08:53:11.736Z</time>
      </trkpt>
      <trkpt lat="45.03675" lon="4.05477">
        <ele>816.83</ele>
        <time>2022-05-09T08:53:32.102Z</time>
      </trkpt>
      <trkpt lat="45.03677" lon="4.05446">
        <ele>816.63</ele>
        <time>2022-05-09T08:53:52.382Z</time>
      </trkpt>
      <trkpt lat="45.03678" lon="4.05413">
        <ele>818.32</ele>
        <time>2022-05-09T08:54:12.142Z</time>
      </trkpt>
      <trkpt lat="45.03677" lon="4.05381">
        <ele>820.82</ele>
        <time>2022-05-09T08:54:31.615Z</time>
      </trkpt>
      <trkpt lat="45.03677" lon="4.05349">
        <ele>820.82</ele>
        <time>2022-05-09T08:54:51.961Z</time>
      </trkpt>
      <trkpt lat="45.03676" lon="4.05315">
        <ele>821.77</ele>
        <time>2022-05-09T08:55:12.164Z</time>
      </trkpt>
      <trkpt lat="45.03675" lon="4.05284">
        <ele>822.38</ele>
        <time>2022-05-09T08:55:31.856Z</time>
      </trkpt>
      <trkpt lat="45.03674" lon="4.05251">
        <ele>823.46</ele>
        <time>2022-05-09T08:55:52.021Z</time>
      </trkpt>
      <trkpt lat="45.03672" lon="4.05217">
        <ele>824.11</ele>
        <time>2022-05-09T08:56:18.602Z</time>
      </trkpt>
      <trkpt lat="45.03671" lon="4.05184">
        <ele>824.49</ele>
        <time>2022-05-09T08:56:40.000Z</time>
      </trkpt>
      <trkpt lat="45.03672" lon="4.05151">
        <ele>824.47</ele>
        <time>2022-05-09T08:56:59.661Z</time>
      </trkpt>
      <trkpt lat="45.03675" lon="4.05118">
        <ele>824.66</ele>
        <time>2022-05-09T08:57:22.101Z</time>
      </trkpt>
      <trkpt lat="45.03682" lon="4.05087">
        <ele>822.63</ele>
        <time>2022-05-09T08:57:44.000Z</time>
      </trkpt>
      <trkpt lat="45.03686" lon="4.05055">
        <ele>823.65</ele>
        <time>2022-05-09T08:58:02.956Z</time>
      </trkpt>
      <trkpt lat="45.03691" lon="4.05024">
        <ele>823.95</ele>
        <time>2022-05-09T08:58:21.527Z</time>
      </trkpt>
      <trkpt lat="45.03694" lon="4.04992">
        <ele>823.61</ele>
        <time>2022-05-09T08:58:40.739Z</time>
      </trkpt>
      <trkpt lat="45.03693" lon="4.04959">
        <ele>821.73</ele>
        <time>2022-05-09T08:59:01.000Z</time>
      </trkpt>
      <trkpt lat="45.03688" lon="4.04926">
        <ele>809.8</ele>
        <time>2022-05-09T09:00:14.615Z</time>
      </trkpt>
      <trkpt lat="45.0369" lon="4.04893">
        <ele>805.84</ele>
        <time>2022-05-09T09:00:35.000Z</time>
      </trkpt>
      <trkpt lat="45.03694" lon="4.04862">
        <ele>805.53</ele>
        <time>2022-05-09T09:00:57.000Z</time>
      </trkpt>
      <trkpt lat="45.03694" lon="4.0483">
        <ele>805.51</ele>
        <time>2022-05-09T09:01:13.535Z</time>
      </trkpt>
      <trkpt lat="45.03694" lon="4.04798">
        <ele>806.81</ele>
        <time>2022-05-09T09:01:31.375Z</time>
      </trkpt>
      <trkpt lat="45.03695" lon="4.04766">
        <ele>806.81</ele>
        <time>2022-05-09T09:01:51.261Z</time>
      </trkpt>
      <trkpt lat="45.03696" lon="4.04732">
        <ele>808.31</ele>
        <time>2022-05-09T09:02:13.078Z</time>
      </trkpt>
      <trkpt lat="45.03696" lon="4.04699">
        <ele>805.51</ele>
        <time>2022-05-09T09:02:33.059Z</time>
      </trkpt>
      <trkpt lat="45.03695" lon="4.04666">
        <ele>808.31</ele>
        <time>2022-05-09T09:02:52.015Z</time>
      </trkpt>
      <trkpt lat="45.03694" lon="4.04634">
        <ele>805.98</ele>
        <time>2022-05-09T09:03:10.660Z</time>
      </trkpt>
      <trkpt lat="45.03694" lon="4.04602">
        <ele>808.26</ele>
        <time>2022-05-09T09:03:31.000Z</time>
      </trkpt>
      <trkpt lat="45.03702" lon="4.04572">
        <ele>814.41</ele>
        <time>2022-05-09T09:03:55.102Z</time>
      </trkpt>
      <trkpt lat="45.03705" lon="4.04541">
        <ele>816.18</ele>
        <time>2022-05-09T09:04:17.000Z</time>
      </trkpt>
      <trkpt lat="45.03712" lon="4.04507">
        <ele>811.66</ele>
        <time>2022-05-09T09:05:00.715Z</time>
      </trkpt>
      <trkpt lat="45.03716" lon="4.04476">
        <ele>809.73</ele>
        <time>2022-05-09T09:05:24.003Z</time>
      </trkpt>
      <trkpt lat="45.03718" lon="4.04443">
        <ele>809.05</ele>
        <time>2022-05-09T09:05:44.935Z</time>
      </trkpt>
      <trkpt lat="45.0372" lon="4.04409">
        <ele>807.67</ele>
        <time>2022-05-09T09:06:05.156Z</time>
      </trkpt>
      <trkpt lat="45.03719" lon="4.04377">
        <ele>805.67</ele>
        <time>2022-05-09T09:06:26.138Z</time>
      </trkpt>
      <trkpt lat="45.03716" lon="4.04346">
        <ele>803.48</ele>
        <time>2022-05-09T09:06:45.717Z</time>
      </trkpt>
      <trkpt lat="45.0371" lon="4.04314">
        <ele>802.79</ele>
        <time>2022-05-09T09:07:06.101Z</time>
      </trkpt>
      <trkpt lat="45.03712" lon="4.04281">
        <ele>801.3</ele>
        <time>2022-05-09T09:07:27.000Z</time>
      </trkpt>
      <trkpt lat="45.03712" lon="4.04246">
        <ele>800.54</ele>
        <time>2022-05-09T09:07:46.594Z</time>
      </trkpt>
      <trkpt lat="45.03712" lon="4.04212">
        <ele>799.72</ele>
        <time>2022-05-09T09:08:07.000Z</time>
      </trkpt>
      <trkpt lat="45.03712" lon="4.04179">
        <ele>799.14</ele>
        <time>2022-05-09T09:08:27.095Z</time>
      </trkpt>
      <trkpt lat="45.03712" lon="4.04147">
        <ele>797.55</ele>
        <time>2022-05-09T09:08:46.914Z</time>
      </trkpt>
      <trkpt lat="45.03714" lon="4.04115">
        <ele>798.33</ele>
        <time>2022-05-09T09:09:07.174Z</time>
      </trkpt>
      <trkpt lat="45.03717" lon="4.04081">
        <ele>794.97</ele>
        <time>2022-05-09T09:09:29.001Z</time>
      </trkpt>
      <trkpt lat="45.03718" lon="4.04048">
        <ele>797.13</ele>
        <time>2022-05-09T09:09:50.135Z</time>
      </trkpt>
      <trkpt lat="45.03723" lon="4.04017">
        <ele>794.36</ele>
        <time>2022-05-09T09:10:10.155Z</time>
      </trkpt>
      <trkpt lat="45.03721" lon="4.03985">
        <ele>792.9</ele>
        <time>2022-05-09T09:10:31.174Z</time>
      </trkpt>
      <trkpt lat="45.03729" lon="4.03954">
        <ele>792.75</ele>
        <time>2022-05-09T09:10:58.000Z</time>
      </trkpt>
      <trkpt lat="45.0374" lon="4.03925">
        <ele>792.21</ele>
        <time>2022-05-09T09:11:23.000Z</time>
      </trkpt>
      <trkpt lat="45.03749" lon="4.03896">
        <ele>787.38</ele>
        <time>2022-05-09T09:11:50.000Z</time>
      </trkpt>
      <trkpt lat="45.0376" lon="4.03867">
        <ele>781.66</ele>
        <time>2022-05-09T09:12:13.000Z</time>
      </trkpt>
      <trkpt lat="45.03769" lon="4.03837">
        <ele>778.99</ele>
        <time>2022-05-09T09:12:33.543Z</time>
      </trkpt>
      <trkpt lat="45.03774" lon="4.03806">
        <ele>779.4</ele>
        <time>2022-05-09T09:12:57.000Z</time>
      </trkpt>
      <trkpt lat="45.03772" lon="4.03773">
        <ele>784.94</ele>
        <time>2022-05-09T09:13:22.017Z</time>
      </trkpt>
      <trkpt lat="45.03789" lon="4.0375">
        <ele>777.22</ele>
        <time>2022-05-09T09:13:49.540Z</time>
      </trkpt>
      <trkpt lat="45.03792" lon="4.03718">
        <ele>770.22</ele>
        <time>2022-05-09T09:14:23.019Z</time>
      </trkpt>
      <trkpt lat="45.03782" lon="4.03689">
        <ele>771.26</ele>
        <time>2022-05-09T09:14:45.095Z</time>
      </trkpt>
      <trkpt lat="45.03777" lon="4.03656">
        <ele>767.21</ele>
        <time>2022-05-09T09:15:09.640Z</time>
      </trkpt>
      <trkpt lat="45.03794" lon="4.03635">
        <ele>770.72</ele>
        <time>2022-05-09T09:15:47.000Z</time>
      </trkpt>
      <trkpt lat="45.03784" lon="4.03606">
        <ele>763.15</ele>
        <time>2022-05-09T09:16:10.517Z</time>
      </trkpt>
      <trkpt lat="45.03775" lon="4.03577">
        <ele>762.94</ele>
        <time>2022-05-09T09:16:52.995Z</time>
      </trkpt>
      <trkpt lat="45.03766" lon="4.03546">
        <ele>768.2</ele>
        <time>2022-05-09T09:17:10.095Z</time>
      </trkpt>
      <trkpt lat="45.03767" lon="4.03514">
        <ele>766.11</ele>
        <time>2022-05-09T09:17:31.000Z</time>
      </trkpt>
      <trkpt lat="45.03767" lon="4.03482">
        <ele>762.94</ele>
        <time>2022-05-09T09:17:51.855Z</time>
      </trkpt>
      <trkpt lat="45.03771" lon="4.0345">
        <ele>763.46</ele>
        <time>2022-05-09T09:18:13.000Z</time>
      </trkpt>
      <trkpt lat="45.03776" lon="4.03418">
        <ele>767.03</ele>
        <time>2022-05-09T09:18:33.720Z</time>
      </trkpt>
      <trkpt lat="45.03778" lon="4.03386">
        <ele>768.66</ele>
        <time>2022-05-09T09:18:51.521Z</time>
      </trkpt>
      <trkpt lat="45.03779" lon="4.03354">
        <ele>769.17</ele>
        <time>2022-05-09T09:19:10.878Z</time>
      </trkpt>
      <trkpt lat="45.03777" lon="4.03321">
        <ele>769.32</ele>
        <time>2022-05-09T09:19:30.763Z</time>
      </trkpt>
      <trkpt lat="45.03774" lon="4.0329">
        <ele>768.85</ele>
        <time>2022-05-09T09:19:51.782Z</time>
      </trkpt>
      <trkpt lat="45.03771" lon="4.03258">
        <ele>768.71</ele>
        <time>2022-05-09T09:20:12.657Z</time>
      </trkpt>
      <trkpt lat="45.03776" lon="4.03225">
        <ele>768.55</ele>
        <time>2022-05-09T09:20:35.723Z</time>
      </trkpt>
      <trkpt lat="45.03782" lon="4.03194">
        <ele>769.7</ele>
        <time>2022-05-09T09:20:57.000Z</time>
      </trkpt>
      <trkpt lat="45.03787" lon="4.03163">
        <ele>772.22</ele>
        <time>2022-05-09T09:21:18.000Z</time>
      </trkpt>
      <trkpt lat="45.03786" lon="4.03129">
        <ele>772.3</ele>
        <time>2022-05-09T09:21:40.662Z</time>
      </trkpt>
      <trkpt lat="45.03787" lon="4.03097">
        <ele>774.63</ele>
        <time>2022-05-09T09:22:04.717Z</time>
      </trkpt>
      <trkpt lat="45.03792" lon="4.03066">
        <ele>775.4</ele>
        <time>2022-05-09T09:22:26.879Z</time>
      </trkpt>
      <trkpt lat="45.03794" lon="4.03034">
        <ele>776.42</ele>
        <time>2022-05-09T09:22:49.705Z</time>
      </trkpt>
      <trkpt lat="45.03795" lon="4.03001">
        <ele>776.23</ele>
        <time>2022-05-09T09:23:15.142Z</time>
      </trkpt>
      <trkpt lat="45.03793" lon="4.02968">
        <ele>776.62</ele>
        <time>2022-05-09T09:23:42.923Z</time>
      </trkpt>
      <trkpt lat="45.03795" lon="4.02936">
        <ele>777.04</ele>
        <time>2022-05-09T09:24:09.000Z</time>
      </trkpt>
      <trkpt lat="45.03798" lon="4.02903">
        <ele>781.8</ele>
        <time>2022-05-09T09:24:31.000Z</time>
      </trkpt>
      <trkpt lat="45.03803" lon="4.02872">
        <ele>783.48</ele>
        <time>2022-05-09T09:24:52.060Z</time>
      </trkpt>
      <trkpt lat="45.03795" lon="4.02841">
        <ele>787.52</ele>
        <time>2022-05-09T09:25:15.558Z</time>
      </trkpt>
      <trkpt lat="45.03778" lon="4.02821">
        <ele>789.05</ele>
        <time>2022-05-09T09:25:39.000Z</time>
      </trkpt>
      <trkpt lat="45.03779" lon="4.02787">
        <ele>789.9</ele>
        <time>2022-05-09T09:26:01.697Z</time>
      </trkpt>
      <trkpt lat="45.03792" lon="4.02761">
        <ele>791.47</ele>
        <time>2022-05-09T09:26:24.100Z</time>
      </trkpt>
      <trkpt lat="45.03807" lon="4.02737">
        <ele>779.27</ele>
        <time>2022-05-09T09:26:44.715Z</time>
      </trkpt>
      <trkpt lat="45.03824" lon="4.02713">
        <ele>788.69</ele>
        <time>2022-05-09T09:27:07.560Z</time>
      </trkpt>
      <trkpt lat="45.03843" lon="4.02696">
        <ele>778.89</ele>
        <time>2022-05-09T09:28:28.100Z</time>
      </trkpt>
      <trkpt lat="45.03844" lon="4.02663">
        <ele>779.26</ele>
        <time>2022-05-09T09:28:51.596Z</time>
      </trkpt>
      <trkpt lat="45.0386" lon="4.02639">
        <ele>783.78</ele>
        <time>2022-05-09T09:29:15.095Z</time>
      </trkpt>
      <trkpt lat="45.03882" lon="4.02646">
        <ele>784.02</ele>
        <time>2022-05-09T09:29:35.163Z</time>
      </trkpt>
      <trkpt lat="45.03905" lon="4.0264">
        <ele>782.08</ele>
        <time>2022-05-09T09:30:02.000Z</time>
      </trkpt>
      <trkpt lat="45.03926" lon="4.02625">
        <ele>781.57</ele>
        <time>2022-05-09T09:30:24.000Z</time>
      </trkpt>
      <trkpt lat="45.03948" lon="4.02616">
        <ele>779.63</ele>
        <time>2022-05-09T09:30:42.784Z</time>
      </trkpt>
      <trkpt lat="45.03971" lon="4.0261">
        <ele>776.74</ele>
        <time>2022-05-09T09:31:04.521Z</time>
      </trkpt>
      <trkpt lat="45.03993" lon="4.02607">
        <ele>778.12</ele>
        <time>2022-05-09T09:31:24.762Z</time>
      </trkpt>
      <trkpt lat="45.04017" lon="4.02609">
        <ele>773.43</ele>
        <time>2022-05-09T09:31:48.702Z</time>
      </trkpt>
      <trkpt lat="45.04006" lon="4.0258">
        <ele>767.77</ele>
        <time>2022-05-09T09:32:27.598Z</time>
      </trkpt>
      <trkpt lat="45.03996" lon="4.0255">
        <ele>769.53</ele>
        <time>2022-05-09T09:32:47.177Z</time>
      </trkpt>
      <trkpt lat="45.04003" lon="4.02519">
        <ele>765.12</ele>
        <time>2022-05-09T09:33:09.060Z</time>
      </trkpt>
      <trkpt lat="45.03996" lon="4.02488">
        <ele>758.96</ele>
        <time>2022-05-09T09:33:32.000Z</time>
      </trkpt>
      <trkpt lat="45.0398" lon="4.02465">
        <ele>765.95</ele>
        <time>2022-05-09T09:33:51.000Z</time>
      </trkpt>
      <trkpt lat="45.03958" lon="4.02473">
        <ele>759.25</ele>
        <time>2022-05-09T09:34:11.156Z</time>
      </trkpt>
      <trkpt lat="45.03937" lon="4.02485">
        <ele>758.15</ele>
        <time>2022-05-09T09:34:31.000Z</time>
      </trkpt>
      <trkpt lat="45.03913" lon="4.02483">
        <ele>756.16</ele>
        <time>2022-05-09T09:34:51.916Z</time>
      </trkpt>
      <trkpt lat="45.03891" lon="4.02475">
        <ele>755.44</ele>
        <time>2022-05-09T09:35:09.518Z</time>
      </trkpt>
      <trkpt lat="45.03869" lon="4.02465">
        <ele>752.36</ele>
        <time>2022-05-09T09:35:29.920Z</time>
      </trkpt>
      <trkpt lat="45.03858" lon="4.02436">
        <ele>757.38</ele>
        <time>2022-05-09T09:35:50.000Z</time>
      </trkpt>
      <trkpt lat="45.03854" lon="4.02405">
        <ele>753.21</ele>
        <time>2022-05-09T09:36:09.095Z</time>
      </trkpt>
      <trkpt lat="45.03872" lon="4.02385">
        <ele>754.13</ele>
        <time>2022-05-09T09:36:37.000Z</time>
      </trkpt>
      <trkpt lat="45.03886" lon="4.02359">
        <ele>761.26</ele>
        <time>2022-05-09T09:38:03.720Z</time>
      </trkpt>
      <trkpt lat="45.03894" lon="4.02329">
        <ele>765.76</ele>
        <time>2022-05-09T09:38:24.000Z</time>
      </trkpt>
      <trkpt lat="45.03897" lon="4.02297">
        <ele>765.63</ele>
        <time>2022-05-09T09:38:47.000Z</time>
      </trkpt>
      <trkpt lat="45.03913" lon="4.02274">
        <ele>768.23</ele>
        <time>2022-05-09T09:39:07.000Z</time>
      </trkpt>
      <trkpt lat="45.03931" lon="4.02255">
        <ele>768.92</ele>
        <time>2022-05-09T09:39:27.000Z</time>
      </trkpt>
      <trkpt lat="45.03951" lon="4.02236">
        <ele>766.45</ele>
        <time>2022-05-09T09:39:49.959Z</time>
      </trkpt>
      <trkpt lat="45.0396" lon="4.02207">
        <ele>771.81</ele>
        <time>2022-05-09T09:40:21.000Z</time>
      </trkpt>
      <trkpt lat="45.03978" lon="4.02186">
        <ele>750.88</ele>
        <time>2022-05-09T09:40:53.880Z</time>
      </trkpt>
      <trkpt lat="45.03989" lon="4.02158">
        <ele>742.44</ele>
        <time>2022-05-09T09:41:33.000Z</time>
      </trkpt>
      <trkpt lat="45.03998" lon="4.02129">
        <ele>744.75</ele>
        <time>2022-05-09T09:42:02.874Z</time>
      </trkpt>
      <trkpt lat="45.04004" lon="4.02098">
        <ele>751.36</ele>
        <time>2022-05-09T09:42:32.000Z</time>
      </trkpt>
      <trkpt lat="45.04007" lon="4.02066">
        <ele>752.74</ele>
        <time>2022-05-09T09:43:00.000Z</time>
      </trkpt>
      <trkpt lat="45.04011" lon="4.02034">
        <ele>745.12</ele>
        <time>2022-05-09T09:43:31.000Z</time>
      </trkpt>
      <trkpt lat="45.04026" lon="4.0201">
        <ele>746.37</ele>
        <time>2022-05-09T09:44:14.000Z</time>
      </trkpt>
      <trkpt lat="45.04029" lon="4.01979">
        <ele>743.95</ele>
        <time>2022-05-09T09:44:43.000Z</time>
      </trkpt>
      <trkpt lat="45.04029" lon="4.01946">
        <ele>744.15</ele>
        <time>2022-05-09T09:45:08.982Z</time>
      </trkpt>
      <trkpt lat="45.04032" lon="4.01912">
        <ele>739.43</ele>
        <time>2022-05-09T09:45:41.000Z</time>
      </trkpt>
      <trkpt lat="45.0404" lon="4.0188">
        <ele>741.5</ele>
        <time>2022-05-09T09:46:05.861Z</time>
      </trkpt>
      <trkpt lat="45.04046" lon="4.01847">
        <ele>747.95</ele>
        <time>2022-05-09T09:46:30.762Z</time>
      </trkpt>
      <trkpt lat="45.04055" lon="4.01817">
        <ele>765.35</ele>
        <time>2022-05-09T09:46:55.979Z</time>
      </trkpt>
      <trkpt lat="45.04062" lon="4.01786">
        <ele>775.69</ele>
        <time>2022-05-09T09:47:15.923Z</time>
      </trkpt>
      <trkpt lat="45.04061" lon="4.01753">
        <ele>777.56</ele>
        <time>2022-05-09T09:47:34.655Z</time>
      </trkpt>
      <trkpt lat="45.04062" lon="4.01721">
        <ele>779.05</ele>
        <time>2022-05-09T09:47:55.000Z</time>
      </trkpt>
      <trkpt lat="45.04059" lon="4.0169">
        <ele>788.9</ele>
        <time>2022-05-09T09:48:13.000Z</time>
      </trkpt>
      <trkpt lat="45.04057" lon="4.01658">
        <ele>786.01</ele>
        <time>2022-05-09T09:48:35.157Z</time>
      </trkpt>
      <trkpt lat="45.04045" lon="4.01629">
        <ele>793.42</ele>
        <time>2022-05-09T09:48:51.518Z</time>
      </trkpt>
      <trkpt lat="45.04031" lon="4.01602">
        <ele>797.6</ele>
        <time>2022-05-09T09:49:08.522Z</time>
      </trkpt>
      <trkpt lat="45.04016" lon="4.01578">
        <ele>802.06</ele>
        <time>2022-05-09T09:49:25.295Z</time>
      </trkpt>
      <trkpt lat="45.04002" lon="4.01553">
        <ele>807.34</ele>
        <time>2022-05-09T09:49:43.461Z</time>
      </trkpt>
      <trkpt lat="45.0399" lon="4.01526">
        <ele>809.8</ele>
        <time>2022-05-09T09:50:03.278Z</time>
      </trkpt>
      <trkpt lat="45.03982" lon="4.01495">
        <ele>812.48</ele>
        <time>2022-05-09T09:50:25.719Z</time>
      </trkpt>
      <trkpt lat="45.03975" lon="4.01462">
        <ele>813.67</ele>
        <time>2022-05-09T09:50:51.000Z</time>
      </trkpt>
      <trkpt lat="45.03969" lon="4.01431">
        <ele>811.33</ele>
        <time>2022-05-09T09:51:13.000Z</time>
      </trkpt>
      <trkpt lat="45.03964" lon="4.014">
        <ele>806.93</ele>
        <time>2022-05-09T09:51:36.000Z</time>
      </trkpt>
      <trkpt lat="45.03964" lon="4.01367">
        <ele>811.33</ele>
        <time>2022-05-09T09:51:57.000Z</time>
      </trkpt>
      <trkpt lat="45.03962" lon="4.01335">
        <ele>811.33</ele>
        <time>2022-05-09T09:52:17.598Z</time>
      </trkpt>
      <trkpt lat="45.03965" lon="4.01304">
        <ele>811.33</ele>
        <time>2022-05-09T09:52:44.102Z</time>
      </trkpt>
      <trkpt lat="45.03964" lon="4.01272">
        <ele>814.3</ele>
        <time>2022-05-09T09:53:48.000Z</time>
      </trkpt>
      <trkpt lat="45.03964" lon="4.01238">
        <ele>812.89</ele>
        <time>2022-05-09T09:54:11.517Z</time>
      </trkpt>
      <trkpt lat="45.03963" lon="4.01206">
        <ele>809.79</ele>
        <time>2022-05-09T09:54:38.000Z</time>
      </trkpt>
      <trkpt lat="45.03959" lon="4.01175">
        <ele>808.43</ele>
        <time>2022-05-09T09:55:06.000Z</time>
      </trkpt>
      <trkpt lat="45.03956" lon="4.01143">
        <ele>805.47</ele>
        <time>2022-05-09T09:55:32.000Z</time>
      </trkpt>
      <trkpt lat="45.03948" lon="4.01111">
        <ele>801.52</ele>
        <time>2022-05-09T09:55:57.538Z</time>
      </trkpt>
      <trkpt lat="45.03941" lon="4.0108">
        <ele>799.42</ele>
        <time>2022-05-09T09:56:20.518Z</time>
      </trkpt>
      <trkpt lat="45.0394" lon="4.01047">
        <ele>791.61</ele>
        <time>2022-05-09T09:56:43.939Z</time>
      </trkpt>
      <trkpt lat="45.03937" lon="4.01016">
        <ele>791.12</ele>
        <time>2022-05-09T09:57:07.379Z</time>
      </trkpt>
      <trkpt lat="45.03934" lon="4.00982">
        <ele>793.92</ele>
        <time>2022-05-09T09:57:32.175Z</time>
      </trkpt>
      <trkpt lat="45.03931" lon="4.00951">
        <ele>791.12</ele>
        <time>2022-05-09T09:57:53.099Z</time>
      </trkpt>
      <trkpt lat="45.03928" lon="4.00919">
        <ele>792.5</ele>
        <time>2022-05-09T09:58:15.944Z</time>
      </trkpt>
      <trkpt lat="45.03926" lon="4.00886">
        <ele>787.12</ele>
        <time>2022-05-09T09:58:39.335Z</time>
      </trkpt>
      <trkpt lat="45.03933" lon="4.00856">
        <ele>788.72</ele>
        <time>2022-05-09T09:59:01.595Z</time>
      </trkpt>
      <trkpt lat="45.03942" lon="4.00826">
        <ele>787.02</ele>
        <time>2022-05-09T09:59:25.000Z</time>
      </trkpt>
      <trkpt lat="45.03949" lon="4.00795">
        <ele>785.12</ele>
        <time>2022-05-09T09:59:51.983Z</time>
      </trkpt>
      <trkpt lat="45.03952" lon="4.0076">
        <ele>785.12</ele>
        <time>2022-05-09T10:00:15.000Z</time>
      </trkpt>
      <trkpt lat="45.03947" lon="4.00729">
        <ele>785.71</ele>
        <time>2022-05-09T10:00:36.000Z</time>
      </trkpt>
      <trkpt lat="45.03937" lon="4.007">
        <ele>785.64</ele>
        <time>2022-05-09T10:01:00.000Z</time>
      </trkpt>
      <trkpt lat="45.03928" lon="4.0067">
        <ele>779.98</ele>
        <time>2022-05-09T10:01:22.555Z</time>
      </trkpt>
      <trkpt lat="45.03919" lon="4.0064">
        <ele>784.07</ele>
        <time>2022-05-09T10:01:42.423Z</time>
      </trkpt>
      <trkpt lat="45.0391" lon="4.0061">
        <ele>783.99</ele>
        <time>2022-05-09T10:02:04.000Z</time>
      </trkpt>
      <trkpt lat="45.03902" lon="4.0058">
        <ele>785.83</ele>
        <time>2022-05-09T10:02:24.098Z</time>
      </trkpt>
      <trkpt lat="45.03894" lon="4.0055">
        <ele>785.21</ele>
        <time>2022-05-09T10:02:45.060Z</time>
      </trkpt>
      <trkpt lat="45.03889" lon="4.00518">
        <ele>783.52</ele>
        <time>2022-05-09T10:03:07.098Z</time>
      </trkpt>
      <trkpt lat="45.03883" lon="4.00487">
        <ele>783.82</ele>
        <time>2022-05-09T10:03:30.000Z</time>
      </trkpt>
      <trkpt lat="45.03872" lon="4.00458">
        <ele>771.5</ele>
        <time>2022-05-09T10:03:51.000Z</time>
      </trkpt>
      <trkpt lat="45.03862" lon="4.00429">
        <ele>733.11</ele>
        <time>2022-05-09T10:04:10.099Z</time>
      </trkpt>
      <trkpt lat="45.03852" lon="4.004">
        <ele>782.41</ele>
        <time>2022-05-09T10:04:34.155Z</time>
      </trkpt>
      <trkpt lat="45.03844" lon="4.00368">
        <ele>780.37</ele>
        <time>2022-05-09T10:05:55.979Z</time>
      </trkpt>
      <trkpt lat="45.03836" lon="4.00337">
        <ele>774.59</ele>
        <time>2022-05-09T10:06:24.475Z</time>
      </trkpt>
      <trkpt lat="45.03828" lon="4.00307">
        <ele>771.05</ele>
        <time>2022-05-09T10:06:45.756Z</time>
      </trkpt>
      <trkpt lat="45.03821" lon="4.00276">
        <ele>769.63</ele>
        <time>2022-05-09T10:07:09.000Z</time>
      </trkpt>
      <trkpt lat="45.03817" lon="4.00244">
        <ele>769.77</ele>
        <time>2022-05-09T10:07:29.000Z</time>
      </trkpt>
      <trkpt lat="45.03818" lon="4.0021">
        <ele>768.96</ele>
        <time>2022-05-09T10:07:50.002Z</time>
      </trkpt>
      <trkpt lat="45.03828" lon="4.00179">
        <ele>767.64</ele>
        <time>2022-05-09T10:08:14.780Z</time>
      </trkpt>
      <trkpt lat="45.03842" lon="4.00152">
        <ele>766.88</ele>
        <time>2022-05-09T10:08:37.000Z</time>
      </trkpt>
      <trkpt lat="45.03856" lon="4.00127">
        <ele>766.79</ele>
        <time>2022-05-09T10:08:56.477Z</time>
      </trkpt>
      <trkpt lat="45.03869" lon="4.001">
        <ele>767</ele>
        <time>2022-05-09T10:09:17.402Z</time>
      </trkpt>
      <trkpt lat="45.03877" lon="4.0007">
        <ele>767.25</ele>
        <time>2022-05-09T10:09:37.078Z</time>
      </trkpt>
      <trkpt lat="45.03883" lon="4.00039">
        <ele>767.22</ele>
        <time>2022-05-09T10:09:58.762Z</time>
      </trkpt>
      <trkpt lat="45.0389" lon="4.00008">
        <ele>767.47</ele>
        <time>2022-05-09T10:10:19.000Z</time>
      </trkpt>
      <trkpt lat="45.03898" lon="3.99976">
        <ele>765</ele>
        <time>2022-05-09T10:10:39.575Z</time>
      </trkpt>
      <trkpt lat="45.03905" lon="3.99946">
        <ele>765</ele>
        <time>2022-05-09T10:11:00.000Z</time>
      </trkpt>
      <trkpt lat="45.0391" lon="3.99915">
        <ele>765</ele>
        <time>2022-05-09T10:11:18.177Z</time>
      </trkpt>
      <trkpt lat="45.03913" lon="3.99883">
        <ele>766.57</ele>
        <time>2022-05-09T10:11:38.602Z</time>
      </trkpt>
      <trkpt lat="45.0392" lon="3.99852">
        <ele>766.78</ele>
        <time>2022-05-09T10:11:58.114Z</time>
      </trkpt>
      <trkpt lat="45.03929" lon="3.99823">
        <ele>764.71</ele>
        <time>2022-05-09T10:12:19.000Z</time>
      </trkpt>
      <trkpt lat="45.03941" lon="3.99794">
        <ele>760.96</ele>
        <time>2022-05-09T10:12:51.897Z</time>
      </trkpt>
      <trkpt lat="45.03953" lon="3.99766">
        <ele>762.06</ele>
        <time>2022-05-09T10:13:12.000Z</time>
      </trkpt>
      <trkpt lat="45.03965" lon="3.9974">
        <ele>760.71</ele>
        <time>2022-05-09T10:13:30.701Z</time>
      </trkpt>
      <trkpt lat="45.03975" lon="3.9971">
        <ele>760.57</ele>
        <time>2022-05-09T10:13:51.855Z</time>
      </trkpt>
      <trkpt lat="45.03985" lon="3.99681">
        <ele>758.88</ele>
        <time>2022-05-09T10:14:09.975Z</time>
      </trkpt>
      <trkpt lat="45.03997" lon="3.99653">
        <ele>754.95</ele>
        <time>2022-05-09T10:14:34.000Z</time>
      </trkpt>
      <trkpt lat="45.04007" lon="3.99623">
        <ele>748.99</ele>
        <time>2022-05-09T10:14:52.535Z</time>
      </trkpt>
      <trkpt lat="45.04014" lon="3.99593">
        <ele>748.99</ele>
        <time>2022-05-09T10:15:13.000Z</time>
      </trkpt>
      <trkpt lat="45.04025" lon="3.99565">
        <ele>748.99</ele>
        <time>2022-05-09T10:15:31.397Z</time>
      </trkpt>
      <trkpt lat="45.04036" lon="3.99535">
        <ele>748.99</ele>
        <time>2022-05-09T10:15:50.901Z</time>
      </trkpt>
      <trkpt lat="45.04046" lon="3.99505">
        <ele>748.99</ele>
        <time>2022-05-09T10:16:12.641Z</time>
      </trkpt>
      <trkpt lat="45.04052" lon="3.99473">
        <ele>744.99</ele>
        <time>2022-05-09T10:16:34.000Z</time>
      </trkpt>
      <trkpt lat="45.04058" lon="3.99442">
        <ele>744.99</ele>
        <time>2022-05-09T10:16:54.961Z</time>
      </trkpt>
      <trkpt lat="45.04064" lon="3.99411">
        <ele>744.99</ele>
        <time>2022-05-09T10:17:25.618Z</time>
      </trkpt>
      <trkpt lat="45.04067" lon="3.99378">
        <ele>735.89</ele>
        <time>2022-05-09T10:19:05.715Z</time>
      </trkpt>
      <trkpt lat="45.04076" lon="3.99348">
        <ele>742.41</ele>
        <time>2022-05-09T10:19:30.079Z</time>
      </trkpt>
      <trkpt lat="45.04097" lon="3.99333">
        <ele>735.09</ele>
        <time>2022-05-09T10:19:52.915Z</time>
      </trkpt>
      <trkpt lat="45.04115" lon="3.99311">
        <ele>737.48</ele>
        <time>2022-05-09T10:20:14.541Z</time>
      </trkpt>
      <trkpt lat="45.04131" lon="3.99288">
        <ele>735.52</ele>
        <time>2022-05-09T10:20:40.000Z</time>
      </trkpt>
      <trkpt lat="45.04108" lon="3.9929">
        <ele>735.09</ele>
        <time>2022-05-09T10:21:07.822Z</time>
      </trkpt>
      <trkpt lat="45.04086" lon="3.99275">
        <ele>735.09</ele>
        <time>2022-05-09T10:21:27.939Z</time>
      </trkpt>
      <trkpt lat="45.04064" lon="3.99278">
        <ele>735.89</ele>
        <time>2022-05-09T10:21:48.114Z</time>
      </trkpt>
      <trkpt lat="45.04039" lon="3.99279">
        <ele>733.57</ele>
        <time>2022-05-09T10:22:08.041Z</time>
      </trkpt>
      <trkpt lat="45.04017" lon="3.99283">
        <ele>730.43</ele>
        <time>2022-05-09T10:22:28.119Z</time>
      </trkpt>
      <trkpt lat="45.03995" lon="3.9929">
        <ele>727.94</ele>
        <time>2022-05-09T10:22:48.140Z</time>
      </trkpt>
      <trkpt lat="45.03972" lon="3.99292">
        <ele>725.88</ele>
        <time>2022-05-09T10:23:48.733Z</time>
      </trkpt>
      <trkpt lat="45.03949" lon="3.99297">
        <ele>724.86</ele>
        <time>2022-05-09T10:24:10.000Z</time>
      </trkpt>
      <trkpt lat="45.03927" lon="3.9929">
        <ele>725.21</ele>
        <time>2022-05-09T10:24:36.000Z</time>
      </trkpt>
      <trkpt lat="45.03913" lon="3.99264">
        <ele>722.55</ele>
        <time>2022-05-09T10:24:56.695Z</time>
      </trkpt>
      <trkpt lat="45.03904" lon="3.99234">
        <ele>719.27</ele>
        <time>2022-05-09T10:25:17.976Z</time>
      </trkpt>
      <trkpt lat="45.03889" lon="3.99209">
        <ele>718.5</ele>
        <time>2022-05-09T10:25:41.158Z</time>
      </trkpt>
      <trkpt lat="45.03876" lon="3.99182">
        <ele>717.47</ele>
        <time>2022-05-09T10:26:07.703Z</time>
      </trkpt>
      <trkpt lat="45.03865" lon="3.99155">
        <ele>714.77</ele>
        <time>2022-05-09T10:26:35.680Z</time>
      </trkpt>
      <trkpt lat="45.03852" lon="3.99128">
        <ele>714.57</ele>
        <time>2022-05-09T10:27:07.095Z</time>
      </trkpt>
      <trkpt lat="45.03842" lon="3.99099">
        <ele>709.39</ele>
        <time>2022-05-09T10:27:40.701Z</time>
      </trkpt>
      <trkpt lat="45.03828" lon="3.99073">
        <ele>704.87</ele>
        <time>2022-05-09T10:28:09.176Z</time>
      </trkpt>
      <trkpt lat="45.03811" lon="3.99051">
        <ele>702.74</ele>
        <time>2022-05-09T10:28:33.000Z</time>
      </trkpt>
      <trkpt lat="45.03791" lon="3.99036">
        <ele>701.41</ele>
        <time>2022-05-09T10:28:54.000Z</time>
      </trkpt>
      <trkpt lat="45.03786" lon="3.99005">
        <ele>701.05</ele>
        <time>2022-05-09T10:29:14.803Z</time>
      </trkpt>
      <trkpt lat="45.03784" lon="3.98972">
        <ele>698.48</ele>
        <time>2022-05-09T10:29:35.016Z</time>
      </trkpt>
      <trkpt lat="45.03778" lon="3.98942">
        <ele>695.58</ele>
        <time>2022-05-09T10:29:55.720Z</time>
      </trkpt>
      <trkpt lat="45.03767" lon="3.98913">
        <ele>694.33</ele>
        <time>2022-05-09T10:30:21.084Z</time>
      </trkpt>
      <trkpt lat="45.03754" lon="3.98887">
        <ele>692.86</ele>
        <time>2022-05-09T10:30:42.520Z</time>
      </trkpt>
      <trkpt lat="45.03746" lon="3.98856">
        <ele>691.71</ele>
        <time>2022-05-09T10:31:04.519Z</time>
      </trkpt>
      <trkpt lat="45.03743" lon="3.98824">
        <ele>692.1</ele>
        <time>2022-05-09T10:31:26.186Z</time>
      </trkpt>
      <trkpt lat="45.0374" lon="3.98791">
        <ele>690.47</ele>
        <time>2022-05-09T10:31:52.803Z</time>
      </trkpt>
      <trkpt lat="45.03729" lon="3.98762">
        <ele>695</ele>
        <time>2022-05-09T10:32:18.820Z</time>
      </trkpt>
      <trkpt lat="45.03709" lon="3.98747">
        <ele>698.83</ele>
        <time>2022-05-09T10:32:49.000Z</time>
      </trkpt>
      <trkpt lat="45.03686" lon="3.98748">
        <ele>698.25</ele>
        <time>2022-05-09T10:33:18.779Z</time>
      </trkpt>
      <trkpt lat="45.03664" lon="3.98748">
        <ele>705.55</ele>
        <time>2022-05-09T10:33:44.000Z</time>
      </trkpt>
      <trkpt lat="45.03672" lon="3.98718">
        <ele>707.95</ele>
        <time>2022-05-09T10:34:49.596Z</time>
      </trkpt>
      <trkpt lat="45.03694" lon="3.98707">
        <ele>707.9</ele>
        <time>2022-05-09T10:35:17.697Z</time>
      </trkpt>
      <trkpt lat="45.03709" lon="3.98683">
        <ele>707.04</ele>
        <time>2022-05-09T10:35:40.717Z</time>
      </trkpt>
      <trkpt lat="45.03725" lon="3.98658">
        <ele>707.04</ele>
        <time>2022-05-09T10:36:03.000Z</time>
      </trkpt>
      <trkpt lat="45.03743" lon="3.98638">
        <ele>706.8</ele>
        <time>2022-05-09T10:36:23.000Z</time>
      </trkpt>
      <trkpt lat="45.03763" lon="3.98621">
        <ele>706.43</ele>
        <time>2022-05-09T10:36:42.098Z</time>
      </trkpt>
      <trkpt lat="45.03782" lon="3.98605">
        <ele>706.07</ele>
        <time>2022-05-09T10:37:01.802Z</time>
      </trkpt>
      <trkpt lat="45.03803" lon="3.9859">
        <ele>706.3</ele>
        <time>2022-05-09T10:37:22.102Z</time>
      </trkpt>
      <trkpt lat="45.03824" lon="3.98578">
        <ele>706.4</ele>
        <time>2022-05-09T10:37:42.511Z</time>
      </trkpt>
      <trkpt lat="45.03845" lon="3.98566">
        <ele>706.82</ele>
        <time>2022-05-09T10:38:03.097Z</time>
      </trkpt>
      <trkpt lat="45.03867" lon="3.98557">
        <ele>704.76</ele>
        <time>2022-05-09T10:38:24.022Z</time>
      </trkpt>
      <trkpt lat="45.03889" lon="3.98549">
        <ele>703.33</ele>
        <time>2022-05-09T10:38:46.101Z</time>
      </trkpt>
      <trkpt lat="45.0391" lon="3.98539">
        <ele>701.25</ele>
        <time>2022-05-09T10:39:07.996Z</time>
      </trkpt>
      <trkpt lat="45.0393" lon="3.98524">
        <ele>699.15</ele>
        <time>2022-05-09T10:39:31.417Z</time>
      </trkpt>
      <trkpt lat="45.03949" lon="3.98504">
        <ele>695.94</ele>
        <time>2022-05-09T10:39:55.118Z</time>
      </trkpt>
      <trkpt lat="45.03963" lon="3.98479">
        <ele>694.6</ele>
        <time>2022-05-09T10:40:17.082Z</time>
      </trkpt>
      <trkpt lat="45.03975" lon="3.98451">
        <ele>692.88</ele>
        <time>2022-05-09T10:40:40.000Z</time>
      </trkpt>
      <trkpt lat="45.03987" lon="3.98424">
        <ele>690.94</ele>
        <time>2022-05-09T10:41:00.518Z</time>
      </trkpt>
      <trkpt lat="45.04006" lon="3.98408">
        <ele>689.69</ele>
        <time>2022-05-09T10:41:24.000Z</time>
      </trkpt>
      <trkpt lat="45.04028" lon="3.98397">
        <ele>687.87</ele>
        <time>2022-05-09T10:41:47.000Z</time>
      </trkpt>
      <trkpt lat="45.0405" lon="3.98393">
        <ele>686.24</ele>
        <time>2022-05-09T10:42:09.000Z</time>
      </trkpt>
      <trkpt lat="45.04073" lon="3.98386">
        <ele>684.27</ele>
        <time>2022-05-09T10:42:30.142Z</time>
      </trkpt>
      <trkpt lat="45.04095" lon="3.98378">
        <ele>682.12</ele>
        <time>2022-05-09T10:42:52.719Z</time>
      </trkpt>
      <trkpt lat="45.04118" lon="3.98373">
        <ele>680.3</ele>
        <time>2022-05-09T10:43:14.182Z</time>
      </trkpt>
      <trkpt lat="45.04138" lon="3.98358">
        <ele>680.21</ele>
        <time>2022-05-09T10:43:36.076Z</time>
      </trkpt>
      <trkpt lat="45.04148" lon="3.98329">
        <ele>678.96</ele>
        <time>2022-05-09T10:44:03.640Z</time>
      </trkpt>
      <trkpt lat="45.04162" lon="3.983">
        <ele>676.49</ele>
        <time>2022-05-09T10:44:27.044Z</time>
      </trkpt>
      <trkpt lat="45.04174" lon="3.98272">
        <ele>675.22</ele>
        <time>2022-05-09T10:44:46.055Z</time>
      </trkpt>
      <trkpt lat="45.04185" lon="3.98244">
        <ele>673.82</ele>
        <time>2022-05-09T10:45:07.595Z</time>
      </trkpt>
      <trkpt lat="45.04196" lon="3.98216">
        <ele>672.73</ele>
        <time>2022-05-09T10:45:29.759Z</time>
      </trkpt>
      <trkpt lat="45.04206" lon="3.98188">
        <ele>672.02</ele>
        <time>2022-05-09T10:45:50.155Z</time>
      </trkpt>
      <trkpt lat="45.04216" lon="3.98158">
        <ele>671.6</ele>
        <time>2022-05-09T10:46:11.000Z</time>
      </trkpt>
      <trkpt lat="45.04225" lon="3.98126">
        <ele>672.78</ele>
        <time>2022-05-09T10:46:36.616Z</time>
      </trkpt>
      <trkpt lat="45.04234" lon="3.98096">
        <ele>672.52</ele>
        <time>2022-05-09T10:46:55.157Z</time>
      </trkpt>
      <trkpt lat="45.04243" lon="3.98067">
        <ele>672.22</ele>
        <time>2022-05-09T10:47:13.863Z</time>
      </trkpt>
      <trkpt lat="45.04251" lon="3.98035">
        <ele>671.71</ele>
        <time>2022-05-09T10:47:34.020Z</time>
      </trkpt>
      <trkpt lat="45.04258" lon="3.98003">
        <ele>671.34</ele>
        <time>2022-05-09T10:47:53.954Z</time>
      </trkpt>
      <trkpt lat="45.04264" lon="3.97972">
        <ele>670.46</ele>
        <time>2022-05-09T10:48:14.398Z</time>
      </trkpt>
      <trkpt lat="45.04268" lon="3.9794">
        <ele>669.89</ele>
        <time>2022-05-09T10:48:32.940Z</time>
      </trkpt>
      <trkpt lat="45.04274" lon="3.97909">
        <ele>669.86</ele>
        <time>2022-05-09T10:48:52.000Z</time>
      </trkpt>
      <trkpt lat="45.04278" lon="3.97878">
        <ele>670.01</ele>
        <time>2022-05-09T10:49:09.601Z</time>
      </trkpt>
      <trkpt lat="45.04282" lon="3.97845">
        <ele>669.1</ele>
        <time>2022-05-09T10:49:28.575Z</time>
      </trkpt>
      <trkpt lat="45.04285" lon="3.97813">
        <ele>669.23</ele>
        <time>2022-05-09T10:49:48.000Z</time>
      </trkpt>
      <trkpt lat="45.04288" lon="3.97781">
        <ele>668.7</ele>
        <time>2022-05-09T10:50:05.977Z</time>
      </trkpt>
      <trkpt lat="45.0429" lon="3.97749">
        <ele>667.72</ele>
        <time>2022-05-09T10:50:24.423Z</time>
      </trkpt>
      <trkpt lat="45.04293" lon="3.97717">
        <ele>666.6</ele>
        <time>2022-05-09T10:50:43.580Z</time>
      </trkpt>
      <trkpt lat="45.04297" lon="3.97686">
        <ele>666.34</ele>
        <time>2022-05-09T10:51:02.622Z</time>
      </trkpt>
      <trkpt lat="45.04299" lon="3.97654">
        <ele>665.84</ele>
        <time>2022-05-09T10:51:21.778Z</time>
      </trkpt>
      <trkpt lat="45.04302" lon="3.97622">
        <ele>665.41</ele>
        <time>2022-05-09T10:51:41.000Z</time>
      </trkpt>
      <trkpt lat="45.04304" lon="3.9759">
        <ele>666.18</ele>
        <time>2022-05-09T10:51:58.094Z</time>
      </trkpt>
      <trkpt lat="45.04306" lon="3.97557">
        <ele>667.09</ele>
        <time>2022-05-09T10:52:18.000Z</time>
      </trkpt>
      <trkpt lat="45.04307" lon="3.97522">
        <ele>667.01</ele>
        <time>2022-05-09T10:52:39.000Z</time>
      </trkpt>
      <trkpt lat="45.04297" lon="3.97493">
        <ele>666.1</ele>
        <time>2022-05-09T10:53:13.000Z</time>
      </trkpt>
      <trkpt lat="45.04283" lon="3.97466">
        <ele>665.99</ele>
        <time>2022-05-09T10:53:31.083Z</time>
      </trkpt>
      <trkpt lat="45.04269" lon="3.97439">
        <ele>665.55</ele>
        <time>2022-05-09T10:53:49.596Z</time>
      </trkpt>
      <trkpt lat="45.04257" lon="3.97412">
        <ele>668.27</ele>
        <time>2022-05-09T10:54:09.000Z</time>
      </trkpt>
      <trkpt lat="45.04236" lon="3.97398">
        <ele>666.68</ele>
        <time>2022-05-09T10:54:28.121Z</time>
      </trkpt>
      <trkpt lat="45.04213" lon="3.974">
        <ele>664.55</ele>
        <time>2022-05-09T10:54:47.663Z</time>
      </trkpt>
      <trkpt lat="45.0419" lon="3.97399">
        <ele>665.28</ele>
        <time>2022-05-09T10:55:09.000Z</time>
      </trkpt>
      <trkpt lat="45.04166" lon="3.97396">
        <ele>666.86</ele>
        <time>2022-05-09T10:55:28.340Z</time>
      </trkpt>
      <trkpt lat="45.04142" lon="3.97393">
        <ele>666.25</ele>
        <time>2022-05-09T10:55:49.000Z</time>
      </trkpt>
      <trkpt lat="45.0412" lon="3.97387">
        <ele>667.27</ele>
        <time>2022-05-09T10:56:07.778Z</time>
      </trkpt>
      <trkpt lat="45.04097" lon="3.9738">
        <ele>667.77</ele>
        <time>2022-05-09T10:56:27.655Z</time>
      </trkpt>
      <trkpt lat="45.04075" lon="3.9737">
        <ele>667.77</ele>
        <time>2022-05-09T10:56:51.000Z</time>
      </trkpt>
      <trkpt lat="45.04053" lon="3.9736">
        <ele>667.24</ele>
        <time>2022-05-09T10:57:10.696Z</time>
      </trkpt>
      <trkpt lat="45.04041" lon="3.97331">
        <ele>666.7</ele>
        <time>2022-05-09T10:57:33.043Z</time>
      </trkpt>
      <trkpt lat="45.04038" lon="3.97297">
        <ele>665.44</ele>
        <time>2022-05-09T10:57:54.477Z</time>
      </trkpt>
      <trkpt lat="45.04016" lon="3.97289">
        <ele>665.64</ele>
        <time>2022-05-09T10:58:15.000Z</time>
      </trkpt>
      <trkpt lat="45.03992" lon="3.97285">
        <ele>667.59</ele>
        <time>2022-05-09T10:58:35.000Z</time>
      </trkpt>
      <trkpt lat="45.0397" lon="3.97282">
        <ele>668.04</ele>
        <time>2022-05-09T10:58:53.879Z</time>
      </trkpt>
      <trkpt lat="45.03948" lon="3.9727">
        <ele>666.84</ele>
        <time>2022-05-09T10:59:15.000Z</time>
      </trkpt>
      <trkpt lat="45.03925" lon="3.97265">
        <ele>668.38</ele>
        <time>2022-05-09T10:59:37.000Z</time>
      </trkpt>
      <trkpt lat="45.03902" lon="3.97266">
        <ele>666.43</ele>
        <time>2022-05-09T10:59:59.000Z</time>
      </trkpt>
      <trkpt lat="45.0388" lon="3.97265">
        <ele>667.51</ele>
        <time>2022-05-09T11:00:17.761Z</time>
      </trkpt>
      <trkpt lat="45.03857" lon="3.97261">
        <ele>667.08</ele>
        <time>2022-05-09T11:00:39.000Z</time>
      </trkpt>
      <trkpt lat="45.03833" lon="3.97256">
        <ele>670.19</ele>
        <time>2022-05-09T11:00:59.602Z</time>
      </trkpt>
      <trkpt lat="45.03811" lon="3.97251">
        <ele>670.66</ele>
        <time>2022-05-09T11:01:21.122Z</time>
      </trkpt>
      <trkpt lat="45.03814" lon="3.97219">
        <ele>670.65</ele>
        <time>2022-05-09T11:01:42.038Z</time>
      </trkpt>
      <trkpt lat="45.03822" lon="3.97189">
        <ele>669.96</ele>
        <time>2022-05-09T11:02:03.000Z</time>
      </trkpt>
      <trkpt lat="45.03828" lon="3.97157">
        <ele>669.66</ele>
        <time>2022-05-09T11:02:23.435Z</time>
      </trkpt>
      <trkpt lat="45.03836" lon="3.97127">
        <ele>669.67</ele>
        <time>2022-05-09T11:02:47.000Z</time>
      </trkpt>
      <trkpt lat="45.03841" lon="3.97095">
        <ele>669.96</ele>
        <time>2022-05-09T11:03:09.000Z</time>
      </trkpt>
      <trkpt lat="45.03843" lon="3.97062">
        <ele>669.81</ele>
        <time>2022-05-09T11:03:31.000Z</time>
      </trkpt>
      <trkpt lat="45.03849" lon="3.9703">
        <ele>669.66</ele>
        <time>2022-05-09T11:03:53.735Z</time>
      </trkpt>
      <trkpt lat="45.03826" lon="3.97038">
        <ele>670.76</ele>
        <time>2022-05-09T11:04:22.779Z</time>
      </trkpt>
      <trkpt lat="45.03815" lon="3.97011">
        <ele>670.76</ele>
        <time>2022-05-09T11:04:43.742Z</time>
      </trkpt>
      <trkpt lat="45.03798" lon="3.96987">
        <ele>673.49</ele>
        <time>2022-05-09T11:05:26.035Z</time>
      </trkpt>
      <trkpt lat="45.03795" lon="3.96955">
        <ele>675.26</ele>
        <time>2022-05-09T11:05:43.981Z</time>
      </trkpt>
      <trkpt lat="45.03789" lon="3.96922">
        <ele>677.56</ele>
        <time>2022-05-09T11:07:18.000Z</time>
      </trkpt>
      <trkpt lat="45.03784" lon="3.96891">
        <ele>678.2</ele>
        <time>2022-05-09T11:08:56.851Z</time>
      </trkpt>
      <trkpt lat="45.03787" lon="3.96923">
        <ele>677.46</ele>
        <time>2022-05-09T11:11:03.742Z</time>
      </trkpt>
      <trkpt lat="45.03806" lon="3.96901">
        <ele>677.16</ele>
        <time>2022-05-09T11:12:25.000Z</time>
      </trkpt>
      <trkpt lat="45.03828" lon="3.96911">
        <ele>677.56</ele>
        <time>2022-05-09T11:13:01.657Z</time>
      </trkpt>
      <trkpt lat="45.03851" lon="3.96915">
        <ele>674.36</ele>
        <time>2022-05-09T11:13:26.560Z</time>
      </trkpt>
      <trkpt lat="45.03873" lon="3.96907">
        <ele>674.46</ele>
        <time>2022-05-09T11:13:51.000Z</time>
      </trkpt>
      <trkpt lat="45.03891" lon="3.96887">
        <ele>674.36</ele>
        <time>2022-05-09T11:14:18.000Z</time>
      </trkpt>
      <trkpt lat="45.03896" lon="3.96855">
        <ele>674.36</ele>
        <time>2022-05-09T11:14:57.555Z</time>
      </trkpt>
      <trkpt lat="45.03907" lon="3.96826">
        <ele>671.3</ele>
        <time>2022-05-09T11:15:19.000Z</time>
      </trkpt>
      <trkpt lat="45.03926" lon="3.96808">
        <ele>673.96</ele>
        <time>2022-05-09T11:15:39.003Z</time>
      </trkpt>
      <trkpt lat="45.03943" lon="3.96788">
        <ele>673.96</ele>
        <time>2022-05-09T11:15:59.860Z</time>
      </trkpt>
      <trkpt lat="45.03959" lon="3.96761">
        <ele>675.34</ele>
        <time>2022-05-09T11:16:23.015Z</time>
      </trkpt>
      <trkpt lat="45.03969" lon="3.96732">
        <ele>676.76</ele>
        <time>2022-05-09T11:16:43.663Z</time>
      </trkpt>
      <trkpt lat="45.03984" lon="3.96707">
        <ele>675.84</ele>
        <time>2022-05-09T11:17:06.000Z</time>
      </trkpt>
      <trkpt lat="45.04001" lon="3.96684">
        <ele>671.76</ele>
        <time>2022-05-09T11:17:29.000Z</time>
      </trkpt>
      <trkpt lat="45.04017" lon="3.96658">
        <ele>669.99</ele>
        <time>2022-05-09T11:19:28.819Z</time>
      </trkpt>
      <trkpt lat="45.04034" lon="3.96637">
        <ele>672.3</ele>
        <time>2022-05-09T11:19:49.120Z</time>
      </trkpt>
      <trkpt lat="45.04052" lon="3.96618">
        <ele>669.1</ele>
        <time>2022-05-09T11:20:10.000Z</time>
      </trkpt>
      <trkpt lat="45.04072" lon="3.966">
        <ele>674.56</ele>
        <time>2022-05-09T11:20:32.000Z</time>
      </trkpt>
      <trkpt lat="45.04094" lon="3.96585">
        <ele>673.47</ele>
        <time>2022-05-09T11:20:55.000Z</time>
      </trkpt>
      <trkpt lat="45.04116" lon="3.96575">
        <ele>674.56</ele>
        <time>2022-05-09T11:21:16.059Z</time>
      </trkpt>
      <trkpt lat="45.04137" lon="3.9656">
        <ele>674.56</ele>
        <time>2022-05-09T11:21:41.000Z</time>
      </trkpt>
      <trkpt lat="45.04157" lon="3.96546">
        <ele>667.36</ele>
        <time>2022-05-09T11:22:12.062Z</time>
      </trkpt>
      <trkpt lat="45.04178" lon="3.96531">
        <ele>674.41</ele>
        <time>2022-05-09T11:22:36.000Z</time>
      </trkpt>
      <trkpt lat="45.042" lon="3.96521">
        <ele>674.56</ele>
        <time>2022-05-09T11:50:21.758Z</time>
      </trkpt>
      <trkpt lat="45.04223" lon="3.96518">
        <ele>670.99</ele>
        <time>2022-05-09T11:50:44.259Z</time>
      </trkpt>
      <trkpt lat="45.04244" lon="3.96504">
        <ele>668.5</ele>
        <time>2022-05-09T11:51:16.000Z</time>
      </trkpt>
      <trkpt lat="45.04256" lon="3.96478">
        <ele>668.78</ele>
        <time>2022-05-09T11:51:38.160Z</time>
      </trkpt>
      <trkpt lat="45.04272" lon="3.96454">
        <ele>668.05</ele>
        <time>2022-05-09T11:52:01.594Z</time>
      </trkpt>
      <trkpt lat="45.04287" lon="3.96429">
        <ele>666.02</ele>
        <time>2022-05-09T11:52:22.597Z</time>
      </trkpt>
      <trkpt lat="45.04302" lon="3.96403">
        <ele>668.39</ele>
        <time>2022-05-09T11:52:45.182Z</time>
      </trkpt>
      <trkpt lat="45.04317" lon="3.96378">
        <ele>675.86</ele>
        <time>2022-05-09T11:53:07.399Z</time>
      </trkpt>
      <trkpt lat="45.04333" lon="3.96355">
        <ele>670.15</ele>
        <time>2022-05-09T11:53:27.778Z</time>
      </trkpt>
      <trkpt lat="45.04348" lon="3.96329">
        <ele>671.03</ele>
        <time>2022-05-09T11:53:50.039Z</time>
      </trkpt>
      <trkpt lat="45.04363" lon="3.96305">
        <ele>668.98</ele>
        <time>2022-05-09T11:54:10.180Z</time>
      </trkpt>
      <trkpt lat="45.04378" lon="3.96279">
        <ele>677.36</ele>
        <time>2022-05-09T11:54:33.159Z</time>
      </trkpt>
      <trkpt lat="45.04393" lon="3.96254">
        <ele>672.9</ele>
        <time>2022-05-09T11:54:54.517Z</time>
      </trkpt>
      <trkpt lat="45.04408" lon="3.96229">
        <ele>671.02</ele>
        <time>2022-05-09T11:55:16.000Z</time>
      </trkpt>
      <trkpt lat="45.04424" lon="3.96205">
        <ele>650.9</ele>
        <time>2022-05-09T11:55:35.775Z</time>
      </trkpt>
      <trkpt lat="45.04437" lon="3.96177">
        <ele>672.51</ele>
        <time>2022-05-09T11:55:57.756Z</time>
      </trkpt>
      <trkpt lat="45.0445" lon="3.9615">
        <ele>684.56</ele>
        <time>2022-05-09T11:56:18.817Z</time>
      </trkpt>
      <trkpt lat="45.04464" lon="3.96124">
        <ele>679.46</ele>
        <time>2022-05-09T11:56:41.002Z</time>
      </trkpt>
      <trkpt lat="45.04478" lon="3.96098">
        <ele>679.45</ele>
        <time>2022-05-09T11:57:03.695Z</time>
      </trkpt>
      <trkpt lat="45.0449" lon="3.96071">
        <ele>674.15</ele>
        <time>2022-05-09T11:57:25.000Z</time>
      </trkpt>
      <trkpt lat="45.04504" lon="3.96046">
        <ele>673.33</ele>
        <time>2022-05-09T11:57:45.279Z</time>
      </trkpt>
      <trkpt lat="45.04516" lon="3.96019">
        <ele>675.05</ele>
        <time>2022-05-09T11:58:05.955Z</time>
      </trkpt>
      <trkpt lat="45.0453" lon="3.95993">
        <ele>676.12</ele>
        <time>2022-05-09T11:58:28.035Z</time>
      </trkpt>
      <trkpt lat="45.04543" lon="3.95967">
        <ele>676.57</ele>
        <time>2022-05-09T11:58:47.981Z</time>
      </trkpt>
      <trkpt lat="45.04557" lon="3.9594">
        <ele>675.3</ele>
        <time>2022-05-09T11:59:10.000Z</time>
      </trkpt>
      <trkpt lat="45.0457" lon="3.95913">
        <ele>665.86</ele>
        <time>2022-05-09T11:59:30.563Z</time>
      </trkpt>
      <trkpt lat="45.04583" lon="3.95887">
        <ele>665.86</ele>
        <time>2022-05-09T11:59:50.739Z</time>
      </trkpt>
      <trkpt lat="45.04597" lon="3.95861">
        <ele>665.86</ele>
        <time>2022-05-09T12:00:12.020Z</time>
      </trkpt>
      <trkpt lat="45.04611" lon="3.95835">
        <ele>665.86</ele>
        <time>2022-05-09T12:00:33.121Z</time>
      </trkpt>
      <trkpt lat="45.04624" lon="3.95808">
        <ele>673.49</ele>
        <time>2022-05-09T12:00:55.015Z</time>
      </trkpt>
      <trkpt lat="45.04631" lon="3.95777">
        <ele>672.59</ele>
        <time>2022-05-09T12:01:16.595Z</time>
      </trkpt>
      <trkpt lat="45.04637" lon="3.95746">
        <ele>673.62</ele>
        <time>2022-05-09T12:01:40.000Z</time>
      </trkpt>
      <trkpt lat="45.04641" lon="3.95714">
        <ele>673.07</ele>
        <time>2022-05-09T12:02:00.000Z</time>
      </trkpt>
      <trkpt lat="45.04649" lon="3.95684">
        <ele>671.54</ele>
        <time>2022-05-09T12:02:20.756Z</time>
      </trkpt>
      <trkpt lat="45.04661" lon="3.95656">
        <ele>673.24</ele>
        <time>2022-05-09T12:02:44.680Z</time>
      </trkpt>
      <trkpt lat="45.04673" lon="3.95627">
        <ele>676.28</ele>
        <time>2022-05-09T12:03:09.882Z</time>
      </trkpt>
      <trkpt lat="45.04683" lon="3.95598">
        <ele>672.86</ele>
        <time>2022-05-09T12:03:41.000Z</time>
      </trkpt>
      <trkpt lat="45.04686" lon="3.95566">
        <ele>682.6</ele>
        <time>2022-05-09T12:04:04.800Z</time>
      </trkpt>
      <trkpt lat="45.04687" lon="3.95534">
        <ele>682.01</ele>
        <time>2022-05-09T12:04:30.000Z</time>
      </trkpt>
      <trkpt lat="45.04688" lon="3.95501">
        <ele>684.08</ele>
        <time>2022-05-09T12:04:53.896Z</time>
      </trkpt>
      <trkpt lat="45.04691" lon="3.95469">
        <ele>685.7</ele>
        <time>2022-05-09T12:05:19.395Z</time>
      </trkpt>
      <trkpt lat="45.047" lon="3.95437">
        <ele>688.61</ele>
        <time>2022-05-09T12:05:44.000Z</time>
      </trkpt>
      <trkpt lat="45.04708" lon="3.95407">
        <ele>691.04</ele>
        <time>2022-05-09T12:06:08.962Z</time>
      </trkpt>
      <trkpt lat="45.04713" lon="3.95375">
        <ele>687.26</ele>
        <time>2022-05-09T12:06:35.000Z</time>
      </trkpt>
      <trkpt lat="45.04717" lon="3.95344">
        <ele>692.49</ele>
        <time>2022-05-09T12:07:00.979Z</time>
      </trkpt>
      <trkpt lat="45.0472" lon="3.95311">
        <ele>690.82</ele>
        <time>2022-05-09T12:07:24.797Z</time>
      </trkpt>
      <trkpt lat="45.04721" lon="3.95279">
        <ele>694.15</ele>
        <time>2022-05-09T12:07:52.000Z</time>
      </trkpt>
      <trkpt lat="45.04728" lon="3.95248">
        <ele>665.86</ele>
        <time>2022-05-09T12:08:46.000Z</time>
      </trkpt>
      <trkpt lat="45.04736" lon="3.95217">
        <ele>665.85</ele>
        <time>2022-05-09T12:09:10.876Z</time>
      </trkpt>
      <trkpt lat="45.0475" lon="3.95192">
        <ele>703.63</ele>
        <time>2022-05-09T12:09:35.540Z</time>
      </trkpt>
      <trkpt lat="45.04764" lon="3.95167">
        <ele>704.05</ele>
        <time>2022-05-09T12:10:01.817Z</time>
      </trkpt>
      <trkpt lat="45.04782" lon="3.95146">
        <ele>706.8</ele>
        <time>2022-05-09T12:10:29.795Z</time>
      </trkpt>
      <trkpt lat="45.04798" lon="3.95122">
        <ele>708.14</ele>
        <time>2022-05-09T12:10:57.000Z</time>
      </trkpt>
      <trkpt lat="45.04806" lon="3.95092">
        <ele>711.67</ele>
        <time>2022-05-09T12:11:24.000Z</time>
      </trkpt>
      <trkpt lat="45.04807" lon="3.9506">
        <ele>713.72</ele>
        <time>2022-05-09T12:11:51.000Z</time>
      </trkpt>
      <trkpt lat="45.04805" lon="3.95028">
        <ele>716.92</ele>
        <time>2022-05-09T12:12:17.114Z</time>
      </trkpt>
      <trkpt lat="45.04821" lon="3.95005">
        <ele>719.04</ele>
        <time>2022-05-09T12:14:05.000Z</time>
      </trkpt>
      <trkpt lat="45.04822" lon="3.94973">
        <ele>717.98</ele>
        <time>2022-05-09T12:15:04.963Z</time>
      </trkpt>
      <trkpt lat="45.04832" lon="3.94943">
        <ele>714.86</ele>
        <time>2022-05-09T12:15:30.116Z</time>
      </trkpt>
      <trkpt lat="45.04837" lon="3.94911">
        <ele>714.74</ele>
        <time>2022-05-09T12:15:57.664Z</time>
      </trkpt>
      <trkpt lat="45.04842" lon="3.94878">
        <ele>712.41</ele>
        <time>2022-05-09T12:16:27.000Z</time>
      </trkpt>
      <trkpt lat="45.04848" lon="3.94847">
        <ele>711.15</ele>
        <time>2022-05-09T12:16:48.863Z</time>
      </trkpt>
      <trkpt lat="45.04857" lon="3.94816">
        <ele>709.66</ele>
        <time>2022-05-09T12:17:12.520Z</time>
      </trkpt>
      <trkpt lat="45.04865" lon="3.94785">
        <ele>709.56</ele>
        <time>2022-05-09T12:17:34.318Z</time>
      </trkpt>
      <trkpt lat="45.04875" lon="3.94756">
        <ele>709.25</ele>
        <time>2022-05-09T12:17:56.000Z</time>
      </trkpt>
      <trkpt lat="45.04886" lon="3.94728">
        <ele>707.79</ele>
        <time>2022-05-09T12:18:18.082Z</time>
      </trkpt>
      <trkpt lat="45.049" lon="3.94701">
        <ele>707.24</ele>
        <time>2022-05-09T12:18:40.997Z</time>
      </trkpt>
      <trkpt lat="45.04912" lon="3.94673">
        <ele>705.76</ele>
        <time>2022-05-09T12:19:04.143Z</time>
      </trkpt>
      <trkpt lat="45.0493" lon="3.94652">
        <ele>704.68</ele>
        <time>2022-05-09T12:19:27.922Z</time>
      </trkpt>
      <trkpt lat="45.04946" lon="3.94629">
        <ele>703.64</ele>
        <time>2022-05-09T12:19:50.683Z</time>
      </trkpt>
      <trkpt lat="45.04969" lon="3.9462">
        <ele>702.9</ele>
        <time>2022-05-09T12:20:16.135Z</time>
      </trkpt>
      <trkpt lat="45.04986" lon="3.94599">
        <ele>701.64</ele>
        <time>2022-05-09T12:20:40.513Z</time>
      </trkpt>
      <trkpt lat="45.05001" lon="3.94575">
        <ele>700.35</ele>
        <time>2022-05-09T12:21:08.421Z</time>
      </trkpt>
      <trkpt lat="45.05013" lon="3.94547">
        <ele>701.04</ele>
        <time>2022-05-09T12:21:35.495Z</time>
      </trkpt>
      <trkpt lat="45.05033" lon="3.94534">
        <ele>692.41</ele>
        <time>2022-05-09T12:22:17.000Z</time>
      </trkpt>
      <trkpt lat="45.05045" lon="3.94507">
        <ele>680.43</ele>
        <time>2022-05-09T12:22:49.000Z</time>
      </trkpt>
      <trkpt lat="45.05063" lon="3.94483">
        <ele>674.19</ele>
        <time>2022-05-09T12:23:14.159Z</time>
      </trkpt>
      <trkpt lat="45.05079" lon="3.94459">
        <ele>672.95</ele>
        <time>2022-05-09T12:23:40.000Z</time>
      </trkpt>
      <trkpt lat="45.0509" lon="3.94431">
        <ele>674.52</ele>
        <time>2022-05-09T12:24:06.000Z</time>
      </trkpt>
      <trkpt lat="45.05105" lon="3.94406">
        <ele>673.23</ele>
        <time>2022-05-09T12:24:28.418Z</time>
      </trkpt>
      <trkpt lat="45.05122" lon="3.94383">
        <ele>674.32</ele>
        <time>2022-05-09T12:24:59.835Z</time>
      </trkpt>
      <trkpt lat="45.05137" lon="3.94357">
        <ele>672.55</ele>
        <time>2022-05-09T12:25:27.842Z</time>
      </trkpt>
      <trkpt lat="45.05141" lon="3.94325">
        <ele>676.49</ele>
        <time>2022-05-09T12:25:50.461Z</time>
      </trkpt>
      <trkpt lat="45.05135" lon="3.94293">
        <ele>676.55</ele>
        <time>2022-05-09T12:26:13.538Z</time>
      </trkpt>
      <trkpt lat="45.05128" lon="3.94263">
        <ele>676.53</ele>
        <time>2022-05-09T12:26:36.855Z</time>
      </trkpt>
      <trkpt lat="45.05104" lon="3.9426">
        <ele>657.29</ele>
        <time>2022-05-09T12:27:15.511Z</time>
      </trkpt>
      <trkpt lat="45.05085" lon="3.94243">
        <ele>657.91</ele>
        <time>2022-05-09T12:27:42.603Z</time>
      </trkpt>
      <trkpt lat="45.05063" lon="3.9423">
        <ele>655.61</ele>
        <time>2022-05-09T12:28:07.995Z</time>
      </trkpt>
      <trkpt lat="45.05041" lon="3.94216">
        <ele>654.44</ele>
        <time>2022-05-09T12:28:36.000Z</time>
      </trkpt>
      <trkpt lat="45.05029" lon="3.94188">
        <ele>650.57</ele>
        <time>2022-05-09T12:28:58.822Z</time>
      </trkpt>
      <trkpt lat="45.05018" lon="3.94161">
        <ele>651.12</ele>
        <time>2022-05-09T12:29:19.000Z</time>
      </trkpt>
      <trkpt lat="45.05008" lon="3.94132">
        <ele>652.93</ele>
        <time>2022-05-09T12:29:39.694Z</time>
      </trkpt>
      <trkpt lat="45.0501" lon="3.94099">
        <ele>649.94</ele>
        <time>2022-05-09T12:30:36.000Z</time>
      </trkpt>
      <trkpt lat="45.05" lon="3.94067">
        <ele>649.27</ele>
        <time>2022-05-09T12:31:04.138Z</time>
      </trkpt>
      <trkpt lat="45.04992" lon="3.94037">
        <ele>647.61</ele>
        <time>2022-05-09T12:31:59.000Z</time>
      </trkpt>
      <trkpt lat="45.04982" lon="3.94007">
        <ele>648.72</ele>
        <time>2022-05-09T12:32:16.140Z</time>
      </trkpt>
      <trkpt lat="45.04974" lon="3.93977">
        <ele>649.98</ele>
        <time>2022-05-09T12:32:36.058Z</time>
      </trkpt>
      <trkpt lat="45.04959" lon="3.93953">
        <ele>648.6</ele>
        <time>2022-05-09T12:33:00.135Z</time>
      </trkpt>
      <trkpt lat="45.04947" lon="3.93926">
        <ele>648.13</ele>
        <time>2022-05-09T12:33:23.000Z</time>
      </trkpt>
      <trkpt lat="45.04935" lon="3.93899">
        <ele>642.64</ele>
        <time>2022-05-09T12:33:47.000Z</time>
      </trkpt>
      <trkpt lat="45.04924" lon="3.93871">
        <ele>640.72</ele>
        <time>2022-05-09T12:34:08.419Z</time>
      </trkpt>
      <trkpt lat="45.04914" lon="3.93842">
        <ele>640.83</ele>
        <time>2022-05-09T12:34:30.595Z</time>
      </trkpt>
      <trkpt lat="45.04902" lon="3.93815">
        <ele>640.36</ele>
        <time>2022-05-09T12:34:49.782Z</time>
      </trkpt>
      <trkpt lat="45.04891" lon="3.93787">
        <ele>639.4</ele>
        <time>2022-05-09T12:35:10.603Z</time>
      </trkpt>
      <trkpt lat="45.04881" lon="3.93758">
        <ele>640.63</ele>
        <time>2022-05-09T12:35:32.000Z</time>
      </trkpt>
      <trkpt lat="45.04869" lon="3.93731">
        <ele>638.55</ele>
        <time>2022-05-09T12:36:02.000Z</time>
      </trkpt>
      <trkpt lat="45.0485" lon="3.93709">
        <ele>637.03</ele>
        <time>2022-05-09T12:36:24.363Z</time>
      </trkpt>
      <trkpt lat="45.04834" lon="3.93687">
        <ele>636.74</ele>
        <time>2022-05-09T12:36:46.702Z</time>
      </trkpt>
      <trkpt lat="45.04821" lon="3.93657">
        <ele>636.15</ele>
        <time>2022-05-09T12:37:10.135Z</time>
      </trkpt>
      <trkpt lat="45.04811" lon="3.93627">
        <ele>632.11</ele>
        <time>2022-05-09T12:37:29.735Z</time>
      </trkpt>
      <trkpt lat="45.04802" lon="3.93597">
        <ele>632.06</ele>
        <time>2022-05-09T12:37:51.000Z</time>
      </trkpt>
      <trkpt lat="45.04795" lon="3.93566">
        <ele>632.14</ele>
        <time>2022-05-09T12:38:11.155Z</time>
      </trkpt>
      <trkpt lat="45.04778" lon="3.93545">
        <ele>627.24</ele>
        <time>2022-05-09T12:38:29.959Z</time>
      </trkpt>
      <trkpt lat="45.04767" lon="3.93515">
        <ele>627.23</ele>
        <time>2022-05-09T12:38:53.940Z</time>
      </trkpt>
      <trkpt lat="45.04757" lon="3.93485">
        <ele>621.44</ele>
        <time>2022-05-09T12:39:15.521Z</time>
      </trkpt>
      <trkpt lat="45.04745" lon="3.93457">
        <ele>618.93</ele>
        <time>2022-05-09T12:39:38.000Z</time>
      </trkpt>
      <trkpt lat="45.04734" lon="3.93429">
        <ele>614.51</ele>
        <time>2022-05-09T12:39:56.979Z</time>
      </trkpt>
      <trkpt lat="45.04722" lon="3.93401">
        <ele>614.44</ele>
        <time>2022-05-09T12:40:18.943Z</time>
      </trkpt>
      <trkpt lat="45.04707" lon="3.93375">
        <ele>614.38</ele>
        <time>2022-05-09T12:40:45.875Z</time>
      </trkpt>
      <trkpt lat="45.04692" lon="3.93348">
        <ele>614.23</ele>
        <time>2022-05-09T12:41:08.981Z</time>
      </trkpt>
      <trkpt lat="45.04683" lon="3.93317">
        <ele>613.83</ele>
        <time>2022-05-09T12:41:32.000Z</time>
      </trkpt>
      <trkpt lat="45.04676" lon="3.93284">
        <ele>614.05</ele>
        <time>2022-05-09T12:41:53.956Z</time>
      </trkpt>
      <trkpt lat="45.04672" lon="3.93253">
        <ele>613.73</ele>
        <time>2022-05-09T12:42:14.921Z</time>
      </trkpt>
      <trkpt lat="45.04675" lon="3.9322">
        <ele>610.83</ele>
        <time>2022-05-09T12:42:36.021Z</time>
      </trkpt>
      <trkpt lat="45.04678" lon="3.93188">
        <ele>608.83</ele>
        <time>2022-05-09T12:42:56.360Z</time>
      </trkpt>
      <trkpt lat="45.04678" lon="3.93155">
        <ele>608.83</ele>
        <time>2022-05-09T12:43:17.777Z</time>
      </trkpt>
      <trkpt lat="45.04677" lon="3.93123">
        <ele>608.83</ele>
        <time>2022-05-09T12:43:37.000Z</time>
      </trkpt>
      <trkpt lat="45.04679" lon="3.93089">
        <ele>607.48</ele>
        <time>2022-05-09T12:43:56.978Z</time>
      </trkpt>
      <trkpt lat="45.04678" lon="3.93056">
        <ele>607.03</ele>
        <time>2022-05-09T12:44:16.636Z</time>
      </trkpt>
      <trkpt lat="45.04679" lon="3.93023">
        <ele>612.56</ele>
        <time>2022-05-09T12:44:36.380Z</time>
      </trkpt>
      <trkpt lat="45.04685" lon="3.92992">
        <ele>606.63</ele>
        <time>2022-05-09T12:44:58.940Z</time>
      </trkpt>
      <trkpt lat="45.04672" lon="3.92965">
        <ele>606.63</ele>
        <time>2022-05-09T12:45:22.000Z</time>
      </trkpt>
      <trkpt lat="45.04693" lon="3.92952">
        <ele>607.45</ele>
        <time>2022-05-09T12:47:07.059Z</time>
      </trkpt>
      <trkpt lat="45.04716" lon="3.92955">
        <ele>607.73</ele>
        <time>2022-05-09T12:47:31.003Z</time>
      </trkpt>
      <trkpt lat="45.04737" lon="3.92942">
        <ele>608.33</ele>
        <time>2022-05-09T12:47:51.660Z</time>
      </trkpt>
      <trkpt lat="45.04755" lon="3.92921">
        <ele>608.58</ele>
        <time>2022-05-09T12:48:13.039Z</time>
      </trkpt>
      <trkpt lat="45.04773" lon="3.92899">
        <ele>609.2</ele>
        <time>2022-05-09T12:48:33.000Z</time>
      </trkpt>
      <trkpt lat="45.04782" lon="3.92869">
        <ele>609.23</ele>
        <time>2022-05-09T12:48:56.756Z</time>
      </trkpt>
      <trkpt lat="45.04787" lon="3.92838">
        <ele>608.83</ele>
        <time>2022-05-09T12:49:16.261Z</time>
      </trkpt>
      <trkpt lat="45.04789" lon="3.92805">
        <ele>608.53</ele>
        <time>2022-05-09T12:49:35.063Z</time>
      </trkpt>
      <trkpt lat="45.04792" lon="3.92772">
        <ele>608.43</ele>
        <time>2022-05-09T12:49:57.258Z</time>
      </trkpt>
      <trkpt lat="45.04778" lon="3.92746">
        <ele>608.33</ele>
        <time>2022-05-09T12:50:24.755Z</time>
      </trkpt>
      <trkpt lat="45.04758" lon="3.92725">
        <ele>608.33</ele>
        <time>2022-05-09T12:50:50.000Z</time>
      </trkpt>
      <trkpt lat="45.0474" lon="3.92705">
        <ele>607.03</ele>
        <time>2022-05-09T12:51:11.019Z</time>
      </trkpt>
      <trkpt lat="45.04722" lon="3.92685">
        <ele>608.31</ele>
        <time>2022-05-09T12:51:29.783Z</time>
      </trkpt>
      <trkpt lat="45.0471" lon="3.92657">
        <ele>606.73</ele>
        <time>2022-05-09T12:51:55.802Z</time>
      </trkpt>
      <trkpt lat="45.04704" lon="3.92626">
        <ele>606.73</ele>
        <time>2022-05-09T12:52:14.720Z</time>
      </trkpt>
      <trkpt lat="45.04727" lon="3.92631">
        <ele>608.53</ele>
        <time>2022-05-09T12:52:42.862Z</time>
      </trkpt>
      <trkpt lat="45.04739" lon="3.92603">
        <ele>606.03</ele>
        <time>2022-05-09T12:53:43.595Z</time>
      </trkpt>
      <trkpt lat="45.04751" lon="3.92576">
        <ele>605.73</ele>
        <time>2022-05-09T12:54:03.695Z</time>
      </trkpt>
      <trkpt lat="45.04763" lon="3.92548">
        <ele>605.05</ele>
        <time>2022-05-09T12:54:26.015Z</time>
      </trkpt>
      <trkpt lat="45.04777" lon="3.92521">
        <ele>604.13</ele>
        <time>2022-05-09T12:54:47.459Z</time>
      </trkpt>
      <trkpt lat="45.04787" lon="3.92491">
        <ele>604.14</ele>
        <time>2022-05-09T12:55:06.935Z</time>
      </trkpt>
      <trkpt lat="45.048" lon="3.92463">
        <ele>605.12</ele>
        <time>2022-05-09T12:55:28.034Z</time>
      </trkpt>
      <trkpt lat="45.04817" lon="3.9244">
        <ele>603.1</ele>
        <time>2022-05-09T12:55:52.000Z</time>
      </trkpt>
      <trkpt lat="45.04832" lon="3.92413">
        <ele>603.63</ele>
        <time>2022-05-09T12:56:13.163Z</time>
      </trkpt>
      <trkpt lat="45.04843" lon="3.92385">
        <ele>604.12</ele>
        <time>2022-05-09T12:56:33.118Z</time>
      </trkpt>
      <trkpt lat="45.04856" lon="3.92358">
        <ele>603.62</ele>
        <time>2022-05-09T12:56:52.642Z</time>
      </trkpt>
      <trkpt lat="45.04869" lon="3.9233">
        <ele>603.62</ele>
        <time>2022-05-09T12:57:14.740Z</time>
      </trkpt>
      <trkpt lat="45.04877" lon="3.923">
        <ele>603.72</ele>
        <time>2022-05-09T12:57:34.715Z</time>
      </trkpt>
      <trkpt lat="45.04887" lon="3.92271">
        <ele>608.32</ele>
        <time>2022-05-09T12:57:53.758Z</time>
      </trkpt>
      <trkpt lat="45.04899" lon="3.92243">
        <ele>601.89</ele>
        <time>2022-05-09T12:58:16.000Z</time>
      </trkpt>
      <trkpt lat="45.04909" lon="3.92214">
        <ele>603.82</ele>
        <time>2022-05-09T12:58:36.600Z</time>
      </trkpt>
      <trkpt lat="45.04924" lon="3.92189">
        <ele>602.38</ele>
        <time>2022-05-09T12:58:57.997Z</time>
      </trkpt>
      <trkpt lat="45.04936" lon="3.92162">
        <ele>603.52</ele>
        <time>2022-05-09T12:59:16.579Z</time>
      </trkpt>
      <trkpt lat="45.04951" lon="3.92136">
        <ele>603.57</ele>
        <time>2022-05-09T12:59:36.679Z</time>
      </trkpt>
      <trkpt lat="45.04963" lon="3.92107">
        <ele>603.31</ele>
        <time>2022-05-09T12:59:56.817Z</time>
      </trkpt>
      <trkpt lat="45.04977" lon="3.92081">
        <ele>601.77</ele>
        <time>2022-05-09T13:00:17.801Z</time>
      </trkpt>
      <trkpt lat="45.04994" lon="3.92059">
        <ele>603.02</ele>
        <time>2022-05-09T13:00:37.622Z</time>
      </trkpt>
      <trkpt lat="45.05009" lon="3.92034">
        <ele>602.92</ele>
        <time>2022-05-09T13:00:58.000Z</time>
      </trkpt>
      <trkpt lat="45.05023" lon="3.92007">
        <ele>603.02</ele>
        <time>2022-05-09T13:01:16.140Z</time>
      </trkpt>
      <trkpt lat="45.05036" lon="3.9198">
        <ele>603.02</ele>
        <time>2022-05-09T13:01:35.058Z</time>
      </trkpt>
      <trkpt lat="45.0505" lon="3.91956">
        <ele>602.92</ele>
        <time>2022-05-09T13:01:52.535Z</time>
      </trkpt>
      <trkpt lat="45.05065" lon="3.9193">
        <ele>603.07</ele>
        <time>2022-05-09T13:02:12.176Z</time>
      </trkpt>
      <trkpt lat="45.05079" lon="3.91904">
        <ele>603.97</ele>
        <time>2022-05-09T13:02:37.635Z</time>
      </trkpt>
      <trkpt lat="45.051" lon="3.91891">
        <ele>604.42</ele>
        <time>2022-05-09T13:03:01.000Z</time>
      </trkpt>
      <trkpt lat="45.05115" lon="3.91864">
        <ele>604.5</ele>
        <time>2022-05-09T13:03:28.058Z</time>
      </trkpt>
      <trkpt lat="45.05133" lon="3.91844">
        <ele>601.33</ele>
        <time>2022-05-09T13:03:50.895Z</time>
      </trkpt>
      <trkpt lat="45.05149" lon="3.91821">
        <ele>604.35</ele>
        <time>2022-05-09T13:04:14.000Z</time>
      </trkpt>
      <trkpt lat="45.05166" lon="3.91796">
        <ele>604.42</ele>
        <time>2022-05-09T13:04:36.000Z</time>
      </trkpt>
      <trkpt lat="45.05182" lon="3.91772">
        <ele>604.32</ele>
        <time>2022-05-09T13:04:55.874Z</time>
      </trkpt>
      <trkpt lat="45.05197" lon="3.91747">
        <ele>604.42</ele>
        <time>2022-05-09T13:05:15.801Z</time>
      </trkpt>
      <trkpt lat="45.05212" lon="3.91723">
        <ele>604.12</ele>
        <time>2022-05-09T13:05:35.522Z</time>
      </trkpt>
      <trkpt lat="45.05227" lon="3.91699">
        <ele>600.62</ele>
        <time>2022-05-09T13:05:56.000Z</time>
      </trkpt>
      <trkpt lat="45.05241" lon="3.91673">
        <ele>599.58</ele>
        <time>2022-05-09T13:06:16.000Z</time>
      </trkpt>
      <trkpt lat="45.05257" lon="3.91649">
        <ele>602.12</ele>
        <time>2022-05-09T13:06:34.577Z</time>
      </trkpt>
      <trkpt lat="45.05274" lon="3.91626">
        <ele>602.12</ele>
        <time>2022-05-09T13:06:55.983Z</time>
      </trkpt>
      <trkpt lat="45.05288" lon="3.916">
        <ele>602.12</ele>
        <time>2022-05-09T13:07:18.000Z</time>
      </trkpt>
      <trkpt lat="45.05306" lon="3.91579">
        <ele>603.22</ele>
        <time>2022-05-09T13:09:30.536Z</time>
      </trkpt>
      <trkpt lat="45.05321" lon="3.91554">
        <ele>602</ele>
        <time>2022-05-09T13:09:50.000Z</time>
      </trkpt>
      <trkpt lat="45.05339" lon="3.91534">
        <ele>601.97</ele>
        <time>2022-05-09T13:10:09.101Z</time>
      </trkpt>
      <trkpt lat="45.05358" lon="3.91514">
        <ele>602.66</ele>
        <time>2022-05-09T13:10:31.103Z</time>
      </trkpt>
      <trkpt lat="45.05377" lon="3.91496">
        <ele>603.04</ele>
        <time>2022-05-09T13:12:17.698Z</time>
      </trkpt>
      <trkpt lat="45.05397" lon="3.9148">
        <ele>603.17</ele>
        <time>2022-05-09T13:12:36.155Z</time>
      </trkpt>
      <trkpt lat="45.05417" lon="3.91461">
        <ele>603.22</ele>
        <time>2022-05-09T13:12:55.161Z</time>
      </trkpt>
      <trkpt lat="45.05438" lon="3.91447">
        <ele>603.22</ele>
        <time>2022-05-09T13:13:16.742Z</time>
      </trkpt>
      <trkpt lat="45.05457" lon="3.91431">
        <ele>601.87</ele>
        <time>2022-05-09T13:13:36.977Z</time>
      </trkpt>
      <trkpt lat="45.0548" lon="3.91424">
        <ele>603.03</ele>
        <time>2022-05-09T13:14:00.000Z</time>
      </trkpt>
      <trkpt lat="45.05497" lon="3.91404">
        <ele>600.18</ele>
        <time>2022-05-09T13:14:20.000Z</time>
      </trkpt>
      <trkpt lat="45.05516" lon="3.91386">
        <ele>616.52</ele>
        <time>2022-05-09T13:14:40.000Z</time>
      </trkpt>
      <trkpt lat="45.05536" lon="3.91368">
        <ele>602.63</ele>
        <time>2022-05-09T13:14:59.675Z</time>
      </trkpt>
      <trkpt lat="45.05556" lon="3.91353">
        <ele>602.65</ele>
        <time>2022-05-09T13:15:19.256Z</time>
      </trkpt>
      <trkpt lat="45.05575" lon="3.91335">
        <ele>601.82</ele>
        <time>2022-05-09T13:15:40.000Z</time>
      </trkpt>
      <trkpt lat="45.05597" lon="3.91327">
        <ele>602.24</ele>
        <time>2022-05-09T13:16:01.000Z</time>
      </trkpt>
      <trkpt lat="45.0562" lon="3.91326">
        <ele>595.39</ele>
        <time>2022-05-09T13:16:21.017Z</time>
      </trkpt>
      <trkpt lat="45.05633" lon="3.913">
        <ele>599.29</ele>
        <time>2022-05-09T13:16:37.380Z</time>
      </trkpt>
      <trkpt lat="45.05628" lon="3.91266">
        <ele>599.25</ele>
        <time>2022-05-09T13:16:57.538Z</time>
      </trkpt>
      <trkpt lat="45.05626" lon="3.91235">
        <ele>598.73</ele>
        <time>2022-05-09T13:17:17.000Z</time>
      </trkpt>
      <trkpt lat="45.05622" lon="3.91203">
        <ele>599.03</ele>
        <time>2022-05-09T13:17:36.038Z</time>
      </trkpt>
      <trkpt lat="45.05618" lon="3.9117">
        <ele>599.61</ele>
        <time>2022-05-09T13:17:55.398Z</time>
      </trkpt>
      <trkpt lat="45.05614" lon="3.91138">
        <ele>600.13</ele>
        <time>2022-05-09T13:18:17.000Z</time>
      </trkpt>
      <trkpt lat="45.05601" lon="3.91108">
        <ele>598.93</ele>
        <time>2022-05-09T13:18:37.780Z</time>
      </trkpt>
      <trkpt lat="45.05587" lon="3.91082">
        <ele>601.21</ele>
        <time>2022-05-09T13:18:59.158Z</time>
      </trkpt>
      <trkpt lat="45.05575" lon="3.91055">
        <ele>603.64</ele>
        <time>2022-05-09T13:19:20.000Z</time>
      </trkpt>
      <trkpt lat="45.05567" lon="3.91024">
        <ele>604.48</ele>
        <time>2022-05-09T13:19:40.000Z</time>
      </trkpt>
      <trkpt lat="45.05558" lon="3.90994">
        <ele>603.53</ele>
        <time>2022-05-09T13:20:00.000Z</time>
      </trkpt>
      <trkpt lat="45.05551" lon="3.90964">
        <ele>603.71</ele>
        <time>2022-05-09T13:20:21.000Z</time>
      </trkpt>
      <trkpt lat="45.05543" lon="3.90933">
        <ele>606.67</ele>
        <time>2022-05-09T13:20:41.601Z</time>
      </trkpt>
      <trkpt lat="45.05538" lon="3.90901">
        <ele>601.22</ele>
        <time>2022-05-09T13:21:00.979Z</time>
      </trkpt>
      <trkpt lat="45.05545" lon="3.9087">
        <ele>608.55</ele>
        <time>2022-05-09T13:21:54.000Z</time>
      </trkpt>
      <trkpt lat="45.05558" lon="3.90844">
        <ele>607.67</ele>
        <time>2022-05-09T13:22:53.810Z</time>
      </trkpt>
      <trkpt lat="45.05572" lon="3.90816">
        <ele>608.33</ele>
        <time>2022-05-09T13:23:12.815Z</time>
      </trkpt>
      <trkpt lat="45.05584" lon="3.90789">
        <ele>609</ele>
        <time>2022-05-09T13:23:31.889Z</time>
      </trkpt>
      <trkpt lat="45.05596" lon="3.90761">
        <ele>608.93</ele>
        <time>2022-05-09T13:23:51.556Z</time>
      </trkpt>
      <trkpt lat="45.05609" lon="3.90732">
        <ele>608.48</ele>
        <time>2022-05-09T13:24:11.071Z</time>
      </trkpt>
      <trkpt lat="45.05619" lon="3.90703">
        <ele>608.01</ele>
        <time>2022-05-09T13:24:29.855Z</time>
      </trkpt>
      <trkpt lat="45.05628" lon="3.90673">
        <ele>607.75</ele>
        <time>2022-05-09T13:24:49.014Z</time>
      </trkpt>
      <trkpt lat="45.05633" lon="3.90642">
        <ele>606.08</ele>
        <time>2022-05-09T13:25:10.000Z</time>
      </trkpt>
      <trkpt lat="45.05639" lon="3.90609">
        <ele>606.27</ele>
        <time>2022-05-09T13:25:29.396Z</time>
      </trkpt>
      <trkpt lat="45.05646" lon="3.90579">
        <ele>606.73</ele>
        <time>2022-05-09T13:25:48.008Z</time>
      </trkpt>
      <trkpt lat="45.05656" lon="3.90549">
        <ele>606.54</ele>
        <time>2022-05-09T13:26:08.348Z</time>
      </trkpt>
      <trkpt lat="45.05669" lon="3.90522">
        <ele>605.48</ele>
        <time>2022-05-09T13:26:27.132Z</time>
      </trkpt>
      <trkpt lat="45.05683" lon="3.90496">
        <ele>606.91</ele>
        <time>2022-05-09T13:26:48.135Z</time>
      </trkpt>
      <trkpt lat="45.05693" lon="3.90467">
        <ele>601.8</ele>
        <time>2022-05-09T13:27:12.000Z</time>
      </trkpt>
      <trkpt lat="45.05707" lon="3.90439">
        <ele>598.81</ele>
        <time>2022-05-09T13:27:33.554Z</time>
      </trkpt>
      <trkpt lat="45.05723" lon="3.90416">
        <ele>600.15</ele>
        <time>2022-05-09T13:27:55.000Z</time>
      </trkpt>
      <trkpt lat="45.05737" lon="3.90391">
        <ele>602.11</ele>
        <time>2022-05-09T13:28:23.093Z</time>
      </trkpt>
      <trkpt lat="45.05754" lon="3.90368">
        <ele>604.52</ele>
        <time>2022-05-09T13:28:43.596Z</time>
      </trkpt>
      <trkpt lat="45.05757" lon="3.90335">
        <ele>605.28</ele>
        <time>2022-05-09T13:29:05.013Z</time>
      </trkpt>
      <trkpt lat="45.05748" lon="3.90306">
        <ele>603.56</ele>
        <time>2022-05-09T13:29:26.093Z</time>
      </trkpt>
      <trkpt lat="45.05735" lon="3.90279">
        <ele>603.63</ele>
        <time>2022-05-09T13:29:46.434Z</time>
      </trkpt>
      <trkpt lat="45.05721" lon="3.90253">
        <ele>607.43</ele>
        <time>2022-05-09T13:30:04.611Z</time>
      </trkpt>
      <trkpt lat="45.05707" lon="3.90227">
        <ele>607.6</ele>
        <time>2022-05-09T13:30:21.608Z</time>
      </trkpt>
      <trkpt lat="45.0569" lon="3.90203">
        <ele>607.61</ele>
        <time>2022-05-09T13:30:40.651Z</time>
      </trkpt>
      <trkpt lat="45.05674" lon="3.9018">
        <ele>605.36</ele>
        <time>2022-05-09T13:31:00.895Z</time>
      </trkpt>
      <trkpt lat="45.05652" lon="3.90168">
        <ele>605.21</ele>
        <time>2022-05-09T13:31:21.000Z</time>
      </trkpt>
      <trkpt lat="45.05631" lon="3.90156">
        <ele>602.57</ele>
        <time>2022-05-09T13:31:43.612Z</time>
      </trkpt>
      <trkpt lat="45.05609" lon="3.90166">
        <ele>602.13</ele>
        <time>2022-05-09T13:32:03.770Z</time>
      </trkpt>
      <trkpt lat="45.05588" lon="3.90181">
        <ele>601.53</ele>
        <time>2022-05-09T13:32:38.753Z</time>
      </trkpt>
      <trkpt lat="45.05565" lon="3.90175">
        <ele>611.42</ele>
        <time>2022-05-09T13:33:06.712Z</time>
      </trkpt>
      <trkpt lat="45.05563" lon="3.90142">
        <ele>607.61</ele>
        <time>2022-05-09T13:33:26.591Z</time>
      </trkpt>
      <trkpt lat="45.05549" lon="3.90117">
        <ele>603.33</ele>
        <time>2022-05-09T13:33:48.690Z</time>
      </trkpt>
      <trkpt lat="45.0553" lon="3.90098">
        <ele>602.63</ele>
        <time>2022-05-09T13:34:37.556Z</time>
      </trkpt>
      <trkpt lat="45.0551" lon="3.90081">
        <ele>603.92</ele>
        <time>2022-05-09T13:34:57.955Z</time>
      </trkpt>
      <trkpt lat="45.05491" lon="3.90063">
        <ele>604.62</ele>
        <time>2022-05-09T13:35:19.000Z</time>
      </trkpt>
      <trkpt lat="45.05471" lon="3.90045">
        <ele>603.85</ele>
        <time>2022-05-09T13:35:40.000Z</time>
      </trkpt>
      <trkpt lat="45.05449" lon="3.90037">
        <ele>602.61</ele>
        <time>2022-05-09T13:36:48.112Z</time>
      </trkpt>
      <trkpt lat="45.05426" lon="3.90035">
        <ele>601.69</ele>
        <time>2022-05-09T13:37:06.955Z</time>
      </trkpt>
      <trkpt lat="45.05402" lon="3.90033">
        <ele>602.12</ele>
        <time>2022-05-09T13:37:25.971Z</time>
      </trkpt>
      <trkpt lat="45.05379" lon="3.90033">
        <ele>603</ele>
        <time>2022-05-09T13:37:45.734Z</time>
      </trkpt>
      <trkpt lat="45.05357" lon="3.90031">
        <ele>601.41</ele>
        <time>2022-05-09T13:38:04.951Z</time>
      </trkpt>
      <trkpt lat="45.05334" lon="3.90039">
        <ele>601.42</ele>
        <time>2022-05-09T13:38:25.000Z</time>
      </trkpt>
      <trkpt lat="45.05314" lon="3.90054">
        <ele>600.15</ele>
        <time>2022-05-09T13:38:41.653Z</time>
      </trkpt>
      <trkpt lat="45.05292" lon="3.90054">
        <ele>599.24</ele>
        <time>2022-05-09T13:39:01.936Z</time>
      </trkpt>
      <trkpt lat="45.05269" lon="3.90047">
        <ele>598.58</ele>
        <time>2022-05-09T13:39:22.000Z</time>
      </trkpt>
      <trkpt lat="45.05247" lon="3.90038">
        <ele>603.37</ele>
        <time>2022-05-09T13:39:41.637Z</time>
      </trkpt>
      <trkpt lat="45.05225" lon="3.90029">
        <ele>602.72</ele>
        <time>2022-05-09T13:40:00.950Z</time>
      </trkpt>
      <trkpt lat="45.05206" lon="3.90011">
        <ele>602.99</ele>
        <time>2022-05-09T13:40:23.076Z</time>
      </trkpt>
      <trkpt lat="45.05209" lon="3.89979">
        <ele>602.14</ele>
        <time>2022-05-09T13:40:48.172Z</time>
      </trkpt>
      <trkpt lat="45.05196" lon="3.89952">
        <ele>603.25</ele>
        <time>2022-05-09T13:41:13.691Z</time>
      </trkpt>
      <trkpt lat="45.05177" lon="3.89933">
        <ele>602.71</ele>
        <time>2022-05-09T13:41:35.000Z</time>
      </trkpt>
      <trkpt lat="45.05159" lon="3.89913">
        <ele>603.74</ele>
        <time>2022-05-09T13:41:53.017Z</time>
      </trkpt>
      <trkpt lat="45.05141" lon="3.89892">
        <ele>603.14</ele>
        <time>2022-05-09T13:42:11.754Z</time>
      </trkpt>
      <trkpt lat="45.05124" lon="3.8987">
        <ele>605.28</ele>
        <time>2022-05-09T13:42:31.632Z</time>
      </trkpt>
      <trkpt lat="45.05107" lon="3.89846">
        <ele>604.46</ele>
        <time>2022-05-09T13:42:51.992Z</time>
      </trkpt>
      <trkpt lat="45.05096" lon="3.89817">
        <ele>613.99</ele>
        <time>2022-05-09T13:43:12.649Z</time>
      </trkpt>
      <trkpt lat="45.05087" lon="3.89788">
        <ele>604.37</ele>
        <time>2022-05-09T13:43:32.451Z</time>
      </trkpt>
      <trkpt lat="45.05078" lon="3.89757">
        <ele>605.9</ele>
        <time>2022-05-09T13:43:56.788Z</time>
      </trkpt>
      <trkpt lat="45.05061" lon="3.89734">
        <ele>609.25</ele>
        <time>2022-05-09T13:46:40.571Z</time>
      </trkpt>
      <trkpt lat="45.05056" lon="3.89703">
        <ele>605.4</ele>
        <time>2022-05-09T13:47:02.132Z</time>
      </trkpt>
      <trkpt lat="45.05055" lon="3.8967">
        <ele>604.01</ele>
        <time>2022-05-09T13:47:22.473Z</time>
      </trkpt>
      <trkpt lat="45.05057" lon="3.89638">
        <ele>606.19</ele>
        <time>2022-05-09T13:47:43.015Z</time>
      </trkpt>
      <trkpt lat="45.05067" lon="3.8961">
        <ele>603.46</ele>
        <time>2022-05-09T13:48:03.577Z</time>
      </trkpt>
      <trkpt lat="45.05079" lon="3.89582">
        <ele>614</ele>
        <time>2022-05-09T13:48:25.794Z</time>
      </trkpt>
      <trkpt lat="45.05079" lon="3.8955">
        <ele>613.36</ele>
        <time>2022-05-09T13:48:45.795Z</time>
      </trkpt>
      <trkpt lat="45.05081" lon="3.89518">
        <ele>613.4</ele>
        <time>2022-05-09T13:49:05.635Z</time>
      </trkpt>
      <trkpt lat="45.05081" lon="3.89485">
        <ele>611.92</ele>
        <time>2022-05-09T13:49:25.000Z</time>
      </trkpt>
      <trkpt lat="45.0508" lon="3.89452">
        <ele>613.68</ele>
        <time>2022-05-09T13:49:45.011Z</time>
      </trkpt>
      <trkpt lat="45.05078" lon="3.8942">
        <ele>609</ele>
        <time>2022-05-09T13:50:04.957Z</time>
      </trkpt>
      <trkpt lat="45.0506" lon="3.89399">
        <ele>609.55</ele>
        <time>2022-05-09T13:50:30.073Z</time>
      </trkpt>
      <trkpt lat="45.05048" lon="3.89372">
        <ele>605.65</ele>
        <time>2022-05-09T13:50:59.000Z</time>
      </trkpt>
      <trkpt lat="45.0505" lon="3.89339">
        <ele>603.94</ele>
        <time>2022-05-09T13:51:19.710Z</time>
      </trkpt>
      <trkpt lat="45.05053" lon="3.89307">
        <ele>603.64</ele>
        <time>2022-05-09T13:53:03.909Z</time>
      </trkpt>
      <trkpt lat="45.05041" lon="3.8928">
        <ele>605.87</ele>
        <time>2022-05-09T13:53:31.000Z</time>
      </trkpt>
      <trkpt lat="45.05023" lon="3.89261">
        <ele>612.66</ele>
        <time>2022-05-09T13:53:47.492Z</time>
      </trkpt>
      <trkpt lat="45.05003" lon="3.89242">
        <ele>602.92</ele>
        <time>2022-05-09T13:54:04.010Z</time>
      </trkpt>
      <trkpt lat="45.04989" lon="3.89215">
        <ele>611.09</ele>
        <time>2022-05-09T13:54:25.000Z</time>
      </trkpt>
      <trkpt lat="45.04981" lon="3.89185">
        <ele>611.4</ele>
        <time>2022-05-09T13:54:45.574Z</time>
      </trkpt>
      <trkpt lat="45.04982" lon="3.89153">
        <ele>605.77</ele>
        <time>2022-05-09T13:55:06.452Z</time>
      </trkpt>
      <trkpt lat="45.04987" lon="3.89121">
        <ele>612.59</ele>
        <time>2022-05-09T13:55:27.407Z</time>
      </trkpt>
      <trkpt lat="45.04988" lon="3.89089">
        <ele>618.18</ele>
        <time>2022-05-09T13:55:46.894Z</time>
      </trkpt>
      <trkpt lat="45.04989" lon="3.89057">
        <ele>614.71</ele>
        <time>2022-05-09T13:56:05.716Z</time>
      </trkpt>
      <trkpt lat="45.0499" lon="3.89024">
        <ele>605.95</ele>
        <time>2022-05-09T13:56:25.989Z</time>
      </trkpt>
      <trkpt lat="45.04988" lon="3.88991">
        <ele>606.8</ele>
        <time>2022-05-09T13:56:49.029Z</time>
      </trkpt>
      <trkpt lat="45.04986" lon="3.8896">
        <ele>607.24</ele>
        <time>2022-05-09T13:57:09.091Z</time>
      </trkpt>
      <trkpt lat="45.04984" lon="3.88928">
        <ele>607.63</ele>
        <time>2022-05-09T13:57:30.489Z</time>
      </trkpt>
      <trkpt lat="45.04982" lon="3.88894">
        <ele>609.57</ele>
        <time>2022-05-09T13:57:51.972Z</time>
      </trkpt>
      <trkpt lat="45.04982" lon="3.88861">
        <ele>609.87</ele>
        <time>2022-05-09T13:58:11.909Z</time>
      </trkpt>
      <trkpt lat="45.04987" lon="3.8883">
        <ele>609.6</ele>
        <time>2022-05-09T13:58:32.095Z</time>
      </trkpt>
      <trkpt lat="45.04992" lon="3.88799">
        <ele>607.73</ele>
        <time>2022-05-09T13:58:53.552Z</time>
      </trkpt>
      <trkpt lat="45.04999" lon="3.88769">
        <ele>611.98</ele>
        <time>2022-05-09T13:59:13.112Z</time>
      </trkpt>
      <trkpt lat="45.05004" lon="3.88736">
        <ele>612.65</ele>
        <time>2022-05-09T14:00:01.952Z</time>
      </trkpt>
      <trkpt lat="45.05016" lon="3.88709">
        <ele>615.8</ele>
        <time>2022-05-09T14:00:19.755Z</time>
      </trkpt>
      <trkpt lat="45.05025" lon="3.88679">
        <ele>615.14</ele>
        <time>2022-05-09T14:00:38.933Z</time>
      </trkpt>
      <trkpt lat="45.05031" lon="3.88649">
        <ele>612.76</ele>
        <time>2022-05-09T14:00:59.755Z</time>
      </trkpt>
      <trkpt lat="45.05041" lon="3.88618">
        <ele>611.58</ele>
        <time>2022-05-09T14:01:20.095Z</time>
      </trkpt>
      <trkpt lat="45.0505" lon="3.88588">
        <ele>611.2</ele>
        <time>2022-05-09T14:01:41.156Z</time>
      </trkpt>
      <trkpt lat="45.05069" lon="3.88569">
        <ele>610.45</ele>
        <time>2022-05-09T14:02:04.169Z</time>
      </trkpt>
      <trkpt lat="45.05053" lon="3.88545">
        <ele>611.36</ele>
        <time>2022-05-09T14:02:39.056Z</time>
      </trkpt>
      <trkpt lat="45.05057" lon="3.88513">
        <ele>616.91</ele>
        <time>2022-05-09T14:03:30.077Z</time>
      </trkpt>
      <trkpt lat="45.05067" lon="3.88481">
        <ele>616.39</ele>
        <time>2022-05-09T14:03:51.677Z</time>
      </trkpt>
      <trkpt lat="45.05078" lon="3.88453">
        <ele>614.78</ele>
        <time>2022-05-09T14:04:12.116Z</time>
      </trkpt>
      <trkpt lat="45.05062" lon="3.88431">
        <ele>612.09</ele>
        <time>2022-05-09T14:04:31.773Z</time>
      </trkpt>
      <trkpt lat="45.05065" lon="3.88398">
        <ele>615.61</ele>
        <time>2022-05-09T14:04:51.433Z</time>
      </trkpt>
      <trkpt lat="45.05053" lon="3.8837">
        <ele>615.88</ele>
        <time>2022-05-09T14:05:16.000Z</time>
      </trkpt>
      <trkpt lat="45.05036" lon="3.88348">
        <ele>615.88</ele>
        <time>2022-05-09T14:08:35.000Z</time>
      </trkpt>
      <trkpt lat="45.05014" lon="3.88353">
        <ele>616.12</ele>
        <time>2022-05-09T14:09:02.000Z</time>
      </trkpt>
      <trkpt lat="45.04991" lon="3.88356">
        <ele>629.78</ele>
        <time>2022-05-09T14:09:26.000Z</time>
      </trkpt>
      <trkpt lat="45.04968" lon="3.88352">
        <ele>629.78</ele>
        <time>2022-05-09T14:09:46.000Z</time>
      </trkpt>
      <trkpt lat="45.04954" lon="3.88326">
        <ele>629.78</ele>
        <time>2022-05-09T14:10:07.704Z</time>
      </trkpt>
      <trkpt lat="45.04934" lon="3.88342">
        <ele>632.56</ele>
        <time>2022-05-09T14:11:07.527Z</time>
      </trkpt>
      <trkpt lat="45.04911" lon="3.88339">
        <ele>635.68</ele>
        <time>2022-05-09T14:11:37.000Z</time>
      </trkpt>
      <trkpt lat="45.04891" lon="3.88352">
        <ele>638.38</ele>
        <time>2022-05-09T14:12:28.824Z</time>
      </trkpt>
      <trkpt lat="45.04894" lon="3.88385">
        <ele>636.06</ele>
        <time>2022-05-09T14:12:58.264Z</time>
      </trkpt>
      <trkpt lat="45.04871" lon="3.88384">
        <ele>640.76</ele>
        <time>2022-05-09T14:13:33.343Z</time>
      </trkpt>
      <trkpt lat="45.04853" lon="3.88365">
        <ele>645.28</ele>
        <time>2022-05-09T14:14:15.650Z</time>
      </trkpt>
      <trkpt lat="45.04832" lon="3.8835">
        <ele>653.4</ele>
        <time>2022-05-09T14:14:46.000Z</time>
      </trkpt>
      <trkpt lat="45.04811" lon="3.88361">
        <ele>657.28</ele>
        <time>2022-05-09T14:15:43.710Z</time>
      </trkpt>
      <trkpt lat="45.04788" lon="3.88351">
        <ele>655.91</ele>
        <time>2022-05-09T14:16:16.000Z</time>
      </trkpt>
      <trkpt lat="45.04766" lon="3.88344">
        <ele>654.32</ele>
        <time>2022-05-09T14:16:40.495Z</time>
      </trkpt>
      <trkpt lat="45.04743" lon="3.88338">
        <ele>654.06</ele>
        <time>2022-05-09T14:17:02.662Z</time>
      </trkpt>
      <trkpt lat="45.04721" lon="3.88337">
        <ele>663.18</ele>
        <time>2022-05-09T14:17:25.462Z</time>
      </trkpt>
      <trkpt lat="45.04698" lon="3.88344">
        <ele>663.18</ele>
        <time>2022-05-09T14:17:50.000Z</time>
      </trkpt>
      <trkpt lat="45.04675" lon="3.88345">
        <ele>652.18</ele>
        <time>2022-05-09T14:18:17.328Z</time>
      </trkpt>
      <trkpt lat="45.04653" lon="3.88351">
        <ele>663.58</ele>
        <time>2022-05-09T14:18:38.688Z</time>
      </trkpt>
      <trkpt lat="45.04631" lon="3.8836">
        <ele>663.58</ele>
        <time>2022-05-09T14:18:56.626Z</time>
      </trkpt>
      <trkpt lat="45.04617" lon="3.88384">
        <ele>669.58</ele>
        <time>2022-05-09T14:19:26.565Z</time>
      </trkpt>
      <trkpt lat="45.04595" lon="3.88394">
        <ele>664.13</ele>
        <time>2022-05-09T14:19:57.000Z</time>
      </trkpt>
      <trkpt lat="45.04572" lon="3.88388">
        <ele>664.08</ele>
        <time>2022-05-09T14:20:18.951Z</time>
      </trkpt>
      <trkpt lat="45.0456" lon="3.88395">
        <ele>664.27</ele>
        <time>2022-05-09T14:21:49.000Z</time>
      </trkpt>
    </trkseg>
  </trk>
</gpx>